<?xml version="1.0" encoding="UTF-8" standalone="no" ?>
<gpx xmlns="http://www.topografix.com/GPX/1/1" xmlns:xsi="http://www.w3.org/2001/XMLSchema-instance" xsi:schemaLocation="http://www.topografix.com/GPX/1/1 http://www.topografix.com/GPX/1/1/gpx.xsd" version="1.1" creator="VisuGPX - https://www.visugpx.com">
  <metadata>
    <name>Grand Tour de la Haute Bruche - complet</name>
  </metadata>
  <trk>
    <name><![CDATA[11930213-Grand Tour de la Haute Bruche - complet]]></name>
    <trkseg>
      <trkpt lat="48.48026" lon="7.21636">
        <ele>311</ele>
        <time>2022-08-04T13:38:30Z</time>
      </trkpt>
      <trkpt lat="48.4801" lon="7.2163">
        <ele>311</ele>
        <time>2022-08-04T13:38:52Z</time>
      </trkpt>
      <trkpt lat="48.47984" lon="7.21629">
        <ele>311</ele>
        <time>2022-08-04T13:39:27Z</time>
      </trkpt>
      <trkpt lat="48.47931" lon="7.21723">
        <ele>311</ele>
        <time>2022-08-04T13:41:16Z</time>
      </trkpt>
      <trkpt lat="48.47893" lon="7.2178">
        <ele>310</ele>
        <time>2022-08-04T13:42:27Z</time>
      </trkpt>
      <trkpt lat="48.47865" lon="7.21827">
        <ele>310</ele>
        <time>2022-08-04T13:43:23Z</time>
      </trkpt>
      <trkpt lat="48.47847" lon="7.2185">
        <ele>310</ele>
        <time>2022-08-04T13:43:55Z</time>
      </trkpt>
      <trkpt lat="48.4786" lon="7.21871">
        <ele>309</ele>
        <time>2022-08-04T13:44:20Z</time>
      </trkpt>
      <trkpt lat="48.47859" lon="7.2188">
        <ele>309</ele>
        <time>2022-08-04T13:44:28Z</time>
      </trkpt>
      <trkpt lat="48.47844" lon="7.21897">
        <ele>309</ele>
        <time>2022-08-04T13:44:53Z</time>
      </trkpt>
      <trkpt lat="48.47846" lon="7.21911">
        <ele>309</ele>
        <time>2022-08-04T13:45:06Z</time>
      </trkpt>
      <trkpt lat="48.47852" lon="7.21924">
        <ele>309</ele>
        <time>2022-08-04T13:45:20Z</time>
      </trkpt>
      <trkpt lat="48.4784" lon="7.21949">
        <ele>313</ele>
        <time>2022-08-04T13:45:47Z</time>
      </trkpt>
      <trkpt lat="48.4782" lon="7.21965">
        <ele>316</ele>
        <time>2022-08-04T13:46:17Z</time>
      </trkpt>
      <trkpt lat="48.47791" lon="7.21978">
        <ele>320</ele>
        <time>2022-08-04T13:46:58Z</time>
      </trkpt>
      <trkpt lat="48.47776" lon="7.21988">
        <ele>323</ele>
        <time>2022-08-04T13:47:20Z</time>
      </trkpt>
      <trkpt lat="48.47765" lon="7.22003">
        <ele>328</ele>
        <time>2022-08-04T13:47:40Z</time>
      </trkpt>
      <trkpt lat="48.47732" lon="7.21997">
        <ele>334</ele>
        <time>2022-08-04T13:48:24Z</time>
      </trkpt>
      <trkpt lat="48.47696" lon="7.21996">
        <ele>348</ele>
        <time>2022-08-04T13:49:12Z</time>
      </trkpt>
      <trkpt lat="48.47702" lon="7.22017">
        <ele>352</ele>
        <time>2022-08-04T13:49:32Z</time>
      </trkpt>
      <trkpt lat="48.47719" lon="7.22042">
        <ele>356</ele>
        <time>2022-08-04T13:50:04Z</time>
      </trkpt>
      <trkpt lat="48.47737" lon="7.22058">
        <ele>356</ele>
        <time>2022-08-04T13:50:32Z</time>
      </trkpt>
      <trkpt lat="48.47721" lon="7.22069">
        <ele>365</ele>
        <time>2022-08-04T13:50:55Z</time>
      </trkpt>
      <trkpt lat="48.47703" lon="7.22056">
        <ele>366</ele>
        <time>2022-08-04T13:51:22Z</time>
      </trkpt>
      <trkpt lat="48.47674" lon="7.22044">
        <ele>371</ele>
        <time>2022-08-04T13:52:02Z</time>
      </trkpt>
      <trkpt lat="48.47598" lon="7.2191">
        <ele>369</ele>
        <time>2022-08-04T13:54:38Z</time>
      </trkpt>
      <trkpt lat="48.47545" lon="7.21856">
        <ele>361</ele>
        <time>2022-08-04T13:56:03Z</time>
      </trkpt>
      <trkpt lat="48.47523" lon="7.21873">
        <ele>373</ele>
        <time>2022-08-04T13:56:36Z</time>
      </trkpt>
      <trkpt lat="48.47426" lon="7.21873">
        <ele>379</ele>
        <time>2022-08-04T13:58:46Z</time>
      </trkpt>
      <trkpt lat="48.47356" lon="7.21893">
        <ele>379</ele>
        <time>2022-08-04T14:00:21Z</time>
      </trkpt>
      <trkpt lat="48.47286" lon="7.21918">
        <ele>372</ele>
        <time>2022-08-04T14:01:57Z</time>
      </trkpt>
      <trkpt lat="48.47272" lon="7.21937">
        <ele>371</ele>
        <time>2022-08-04T14:02:22Z</time>
      </trkpt>
      <trkpt lat="48.47279" lon="7.21973">
        <ele>381</ele>
        <time>2022-08-04T14:02:55Z</time>
      </trkpt>
      <trkpt lat="48.47289" lon="7.22083">
        <ele>398</ele>
        <time>2022-08-04T14:04:33Z</time>
      </trkpt>
      <trkpt lat="48.47297" lon="7.22128">
        <ele>404</ele>
        <time>2022-08-04T14:05:15Z</time>
      </trkpt>
      <trkpt lat="48.47314" lon="7.22182">
        <ele>411</ele>
        <time>2022-08-04T14:06:07Z</time>
      </trkpt>
      <trkpt lat="48.47317" lon="7.22218">
        <ele>414</ele>
        <time>2022-08-04T14:06:40Z</time>
      </trkpt>
      <trkpt lat="48.47333" lon="7.22248">
        <ele>415</ele>
        <time>2022-08-04T14:07:14Z</time>
      </trkpt>
      <trkpt lat="48.4735" lon="7.22297">
        <ele>419</ele>
        <time>2022-08-04T14:08:03Z</time>
      </trkpt>
      <trkpt lat="48.47374" lon="7.22324">
        <ele>419</ele>
        <time>2022-08-04T14:08:43Z</time>
      </trkpt>
      <trkpt lat="48.47386" lon="7.22347">
        <ele>418</ele>
        <time>2022-08-04T14:09:08Z</time>
      </trkpt>
      <trkpt lat="48.47368" lon="7.2235">
        <ele>420</ele>
        <time>2022-08-04T14:09:33Z</time>
      </trkpt>
      <trkpt lat="48.47345" lon="7.22375">
        <ele>425</ele>
        <time>2022-08-04T14:10:10Z</time>
      </trkpt>
      <trkpt lat="48.47329" lon="7.22382">
        <ele>428</ele>
        <time>2022-08-04T14:10:33Z</time>
      </trkpt>
      <trkpt lat="48.4729" lon="7.22395">
        <ele>436</ele>
        <time>2022-08-04T14:11:26Z</time>
      </trkpt>
      <trkpt lat="48.47265" lon="7.22393">
        <ele>441</ele>
        <time>2022-08-04T14:11:59Z</time>
      </trkpt>
      <trkpt lat="48.47245" lon="7.22415">
        <ele>447</ele>
        <time>2022-08-04T14:12:32Z</time>
      </trkpt>
      <trkpt lat="48.47148" lon="7.22414">
        <ele>457</ele>
        <time>2022-08-04T14:14:42Z</time>
      </trkpt>
      <trkpt lat="48.47093" lon="7.22404">
        <ele>466</ele>
        <time>2022-08-04T14:15:56Z</time>
      </trkpt>
      <trkpt lat="48.47076" lon="7.22387">
        <ele>467</ele>
        <time>2022-08-04T14:16:23Z</time>
      </trkpt>
      <trkpt lat="48.47061" lon="7.22354">
        <ele>466</ele>
        <time>2022-08-04T14:16:58Z</time>
      </trkpt>
      <trkpt lat="48.47042" lon="7.22303">
        <ele>464</ele>
        <time>2022-08-04T14:17:50Z</time>
      </trkpt>
      <trkpt lat="48.47022" lon="7.22282">
        <ele>467</ele>
        <time>2022-08-04T14:18:23Z</time>
      </trkpt>
      <trkpt lat="48.46992" lon="7.22265">
        <ele>472</ele>
        <time>2022-08-04T14:19:05Z</time>
      </trkpt>
      <trkpt lat="48.46968" lon="7.22263">
        <ele>474</ele>
        <time>2022-08-04T14:19:37Z</time>
      </trkpt>
      <trkpt lat="48.46945" lon="7.22272">
        <ele>479</ele>
        <time>2022-08-04T14:20:09Z</time>
      </trkpt>
      <trkpt lat="48.4687" lon="7.22353">
        <ele>495</ele>
        <time>2022-08-04T14:22:12Z</time>
      </trkpt>
      <trkpt lat="48.4685" lon="7.22389">
        <ele>499</ele>
        <time>2022-08-04T14:22:54Z</time>
      </trkpt>
      <trkpt lat="48.46813" lon="7.22489">
        <ele>510</ele>
        <time>2022-08-04T14:24:35Z</time>
      </trkpt>
      <trkpt lat="48.46789" lon="7.22562">
        <ele>514</ele>
        <time>2022-08-04T14:25:47Z</time>
      </trkpt>
      <trkpt lat="48.46772" lon="7.22601">
        <ele>516</ele>
        <time>2022-08-04T14:26:29Z</time>
      </trkpt>
      <trkpt lat="48.46746" lon="7.22626">
        <ele>521</ele>
        <time>2022-08-04T14:27:10Z</time>
      </trkpt>
      <trkpt lat="48.46743" lon="7.22719">
        <ele>517</ele>
        <time>2022-08-04T14:28:32Z</time>
      </trkpt>
      <trkpt lat="48.4658" lon="7.22705">
        <ele>549</ele>
        <time>2022-08-04T14:32:10Z</time>
      </trkpt>
      <trkpt lat="48.46535" lon="7.22754">
        <ele>554</ele>
        <time>2022-08-04T14:33:24Z</time>
      </trkpt>
      <trkpt lat="48.46472" lon="7.2281">
        <ele>558</ele>
        <time>2022-08-04T14:35:02Z</time>
      </trkpt>
      <trkpt lat="48.46421" lon="7.22827">
        <ele>568</ele>
        <time>2022-08-04T14:36:11Z</time>
      </trkpt>
      <trkpt lat="48.46385" lon="7.22847">
        <ele>573</ele>
        <time>2022-08-04T14:37:03Z</time>
      </trkpt>
      <trkpt lat="48.46365" lon="7.22875">
        <ele>569</ele>
        <time>2022-08-04T14:37:39Z</time>
      </trkpt>
      <trkpt lat="48.46316" lon="7.22904">
        <ele>573</ele>
        <time>2022-08-04T14:38:49Z</time>
      </trkpt>
      <trkpt lat="48.46281" lon="7.22917">
        <ele>578</ele>
        <time>2022-08-04T14:39:37Z</time>
      </trkpt>
      <trkpt lat="48.46208" lon="7.22927">
        <ele>596</ele>
        <time>2022-08-04T14:41:15Z</time>
      </trkpt>
      <trkpt lat="48.46168" lon="7.22965">
        <ele>599</ele>
        <time>2022-08-04T14:42:18Z</time>
      </trkpt>
      <trkpt lat="48.46139" lon="7.23014">
        <ele>603</ele>
        <time>2022-08-04T14:43:16Z</time>
      </trkpt>
      <trkpt lat="48.46124" lon="7.23054">
        <ele>608</ele>
        <time>2022-08-04T14:43:57Z</time>
      </trkpt>
      <trkpt lat="48.46111" lon="7.23108">
        <ele>611</ele>
        <time>2022-08-04T14:44:48Z</time>
      </trkpt>
      <trkpt lat="48.46113" lon="7.23155">
        <ele>609</ele>
        <time>2022-08-04T14:45:29Z</time>
      </trkpt>
      <trkpt lat="48.46123" lon="7.23219">
        <ele>605</ele>
        <time>2022-08-04T14:46:28Z</time>
      </trkpt>
      <trkpt lat="48.46108" lon="7.23355">
        <ele>618</ele>
        <time>2022-08-04T14:48:30Z</time>
      </trkpt>
      <trkpt lat="48.46087" lon="7.23463">
        <ele>633</ele>
        <time>2022-08-04T14:50:09Z</time>
      </trkpt>
      <trkpt lat="48.46127" lon="7.23561">
        <ele>635</ele>
        <time>2022-08-04T14:51:51Z</time>
      </trkpt>
      <trkpt lat="48.46168" lon="7.23683">
        <ele>649</ele>
        <time>2022-08-04T14:53:52Z</time>
      </trkpt>
      <trkpt lat="48.46194" lon="7.23709">
        <ele>651</ele>
        <time>2022-08-04T14:54:34Z</time>
      </trkpt>
      <trkpt lat="48.46225" lon="7.2373">
        <ele>651</ele>
        <time>2022-08-04T14:55:19Z</time>
      </trkpt>
      <trkpt lat="48.46239" lon="7.23759">
        <ele>655</ele>
        <time>2022-08-04T14:55:51Z</time>
      </trkpt>
      <trkpt lat="48.46272" lon="7.23811">
        <ele>661</ele>
        <time>2022-08-04T14:56:55Z</time>
      </trkpt>
      <trkpt lat="48.46278" lon="7.23847">
        <ele>665</ele>
        <time>2022-08-04T14:57:27Z</time>
      </trkpt>
      <trkpt lat="48.46279" lon="7.23889">
        <ele>665</ele>
        <time>2022-08-04T14:58:05Z</time>
      </trkpt>
      <trkpt lat="48.46246" lon="7.23894">
        <ele>666</ele>
        <time>2022-08-04T14:58:49Z</time>
      </trkpt>
      <trkpt lat="48.4621" lon="7.23936">
        <ele>667</ele>
        <time>2022-08-04T14:59:50Z</time>
      </trkpt>
      <trkpt lat="48.46103" lon="7.24026">
        <ele>670</ele>
        <time>2022-08-04T15:02:33Z</time>
      </trkpt>
      <trkpt lat="48.46077" lon="7.24027">
        <ele>677</ele>
        <time>2022-08-04T15:03:08Z</time>
      </trkpt>
      <trkpt lat="48.46045" lon="7.24051">
        <ele>682</ele>
        <time>2022-08-04T15:03:55Z</time>
      </trkpt>
      <trkpt lat="48.46014" lon="7.24088">
        <ele>684</ele>
        <time>2022-08-04T15:04:48Z</time>
      </trkpt>
      <trkpt lat="48.45977" lon="7.24146">
        <ele>685</ele>
        <time>2022-08-04T15:05:59Z</time>
      </trkpt>
      <trkpt lat="48.45899" lon="7.24203">
        <ele>701</ele>
        <time>2022-08-04T15:07:55Z</time>
      </trkpt>
      <trkpt lat="48.45848" lon="7.24223">
        <ele>708</ele>
        <time>2022-08-04T15:09:05Z</time>
      </trkpt>
      <trkpt lat="48.45807" lon="7.24253">
        <ele>706</ele>
        <time>2022-08-04T15:10:06Z</time>
      </trkpt>
      <trkpt lat="48.45777" lon="7.24259">
        <ele>705</ele>
        <time>2022-08-04T15:10:47Z</time>
      </trkpt>
      <trkpt lat="48.45698" lon="7.24254">
        <ele>702</ele>
        <time>2022-08-04T15:12:32Z</time>
      </trkpt>
      <trkpt lat="48.45646" lon="7.24269">
        <ele>698</ele>
        <time>2022-08-04T15:13:43Z</time>
      </trkpt>
      <trkpt lat="48.45616" lon="7.24293">
        <ele>697</ele>
        <time>2022-08-04T15:14:28Z</time>
      </trkpt>
      <trkpt lat="48.4555" lon="7.24316">
        <ele>699</ele>
        <time>2022-08-04T15:15:59Z</time>
      </trkpt>
      <trkpt lat="48.45521" lon="7.24323">
        <ele>700</ele>
        <time>2022-08-04T15:16:38Z</time>
      </trkpt>
      <trkpt lat="48.45471" lon="7.24323">
        <ele>702</ele>
        <time>2022-08-04T15:17:44Z</time>
      </trkpt>
      <trkpt lat="48.45428" lon="7.24318">
        <ele>703</ele>
        <time>2022-08-04T15:18:42Z</time>
      </trkpt>
      <trkpt lat="48.4537" lon="7.24298">
        <ele>702</ele>
        <time>2022-08-04T15:20:01Z</time>
      </trkpt>
      <trkpt lat="48.45451" lon="7.24365">
        <ele>708</ele>
        <time>2022-08-04T15:22:05Z</time>
      </trkpt>
      <trkpt lat="48.45477" lon="7.24396">
        <ele>710</ele>
        <time>2022-08-04T15:22:49Z</time>
      </trkpt>
      <trkpt lat="48.4551" lon="7.24413">
        <ele>710</ele>
        <time>2022-08-04T15:23:35Z</time>
      </trkpt>
      <trkpt lat="48.45483" lon="7.24623">
        <ele>739</ele>
        <time>2022-08-04T15:26:45Z</time>
      </trkpt>
      <trkpt lat="48.45473" lon="7.24635">
        <ele>743</ele>
        <time>2022-08-04T15:27:02Z</time>
      </trkpt>
      <trkpt lat="48.45484" lon="7.24686">
        <ele>747</ele>
        <time>2022-08-04T15:27:49Z</time>
      </trkpt>
      <trkpt lat="48.45452" lon="7.25071">
        <ele>779</ele>
        <time>2022-08-04T15:33:33Z</time>
      </trkpt>
      <trkpt lat="48.45455" lon="7.25106">
        <ele>780</ele>
        <time>2022-08-04T15:34:04Z</time>
      </trkpt>
      <trkpt lat="48.4545" lon="7.25177">
        <ele>786</ele>
        <time>2022-08-04T15:35:07Z</time>
      </trkpt>
      <trkpt lat="48.45446" lon="7.25308">
        <ele>792</ele>
        <time>2022-08-04T15:37:03Z</time>
      </trkpt>
      <trkpt lat="48.45423" lon="7.25191">
        <ele>793</ele>
        <time>2022-08-04T15:38:51Z</time>
      </trkpt>
      <trkpt lat="48.4539" lon="7.24973">
        <ele>789</ele>
        <time>2022-08-04T15:42:09Z</time>
      </trkpt>
      <trkpt lat="48.45368" lon="7.24973">
        <ele>795</ele>
        <time>2022-08-04T15:42:38Z</time>
      </trkpt>
      <trkpt lat="48.45374" lon="7.2504">
        <ele>799</ele>
        <time>2022-08-04T15:43:38Z</time>
      </trkpt>
      <trkpt lat="48.45388" lon="7.25146">
        <ele>801</ele>
        <time>2022-08-04T15:45:14Z</time>
      </trkpt>
      <trkpt lat="48.45399" lon="7.25209">
        <ele>801</ele>
        <time>2022-08-04T15:46:12Z</time>
      </trkpt>
      <trkpt lat="48.454" lon="7.25274">
        <ele>804</ele>
        <time>2022-08-04T15:47:09Z</time>
      </trkpt>
      <trkpt lat="48.45405" lon="7.25336">
        <ele>804</ele>
        <time>2022-08-04T15:48:04Z</time>
      </trkpt>
      <trkpt lat="48.45406" lon="7.25387">
        <ele>802</ele>
        <time>2022-08-04T15:48:50Z</time>
      </trkpt>
      <trkpt lat="48.4538" lon="7.25456">
        <ele>804</ele>
        <time>2022-08-04T15:50:00Z</time>
      </trkpt>
      <trkpt lat="48.45356" lon="7.25483">
        <ele>807</ele>
        <time>2022-08-04T15:50:40Z</time>
      </trkpt>
      <trkpt lat="48.4528" lon="7.2553">
        <ele>812</ele>
        <time>2022-08-04T15:52:29Z</time>
      </trkpt>
      <trkpt lat="48.45255" lon="7.25532">
        <ele>813</ele>
        <time>2022-08-04T15:53:03Z</time>
      </trkpt>
      <trkpt lat="48.45225" lon="7.25527">
        <ele>816</ele>
        <time>2022-08-04T15:53:43Z</time>
      </trkpt>
      <trkpt lat="48.45191" lon="7.25533">
        <ele>817</ele>
        <time>2022-08-04T15:54:29Z</time>
      </trkpt>
      <trkpt lat="48.4516" lon="7.25533">
        <ele>819</ele>
        <time>2022-08-04T15:55:10Z</time>
      </trkpt>
      <trkpt lat="48.45128" lon="7.25544">
        <ele>821</ele>
        <time>2022-08-04T15:55:54Z</time>
      </trkpt>
      <trkpt lat="48.45047" lon="7.25628">
        <ele>815</ele>
        <time>2022-08-04T15:58:05Z</time>
      </trkpt>
      <trkpt lat="48.45017" lon="7.25643">
        <ele>820</ele>
        <time>2022-08-04T15:58:47Z</time>
      </trkpt>
      <trkpt lat="48.44967" lon="7.25695">
        <ele>822</ele>
        <time>2022-08-04T16:00:08Z</time>
      </trkpt>
      <trkpt lat="48.44939" lon="7.2574">
        <ele>823</ele>
        <time>2022-08-04T16:01:03Z</time>
      </trkpt>
      <trkpt lat="48.44899" lon="7.25781">
        <ele>833</ele>
        <time>2022-08-04T16:02:08Z</time>
      </trkpt>
      <trkpt lat="48.44875" lon="7.25689">
        <ele>839</ele>
        <time>2022-08-04T16:03:35Z</time>
      </trkpt>
      <trkpt lat="48.44867" lon="7.25625">
        <ele>838</ele>
        <time>2022-08-04T16:04:33Z</time>
      </trkpt>
      <trkpt lat="48.44829" lon="7.25686">
        <ele>844</ele>
        <time>2022-08-04T16:05:47Z</time>
      </trkpt>
      <trkpt lat="48.4476" lon="7.25714">
        <ele>845</ele>
        <time>2022-08-04T16:07:22Z</time>
      </trkpt>
      <trkpt lat="48.44758" lon="7.25765">
        <ele>852</ele>
        <time>2022-08-04T16:08:07Z</time>
      </trkpt>
      <trkpt lat="48.44764" lon="7.25828">
        <ele>860</ele>
        <time>2022-08-04T16:09:04Z</time>
      </trkpt>
      <trkpt lat="48.44792" lon="7.25887">
        <ele>865</ele>
        <time>2022-08-04T16:10:08Z</time>
      </trkpt>
      <trkpt lat="48.44811" lon="7.25999">
        <ele>880</ele>
        <time>2022-08-04T16:11:50Z</time>
      </trkpt>
      <trkpt lat="48.4488" lon="7.26219">
        <ele>891</ele>
        <time>2022-08-04T16:15:26Z</time>
      </trkpt>
      <trkpt lat="48.44917" lon="7.26425">
        <ele>905</ele>
        <time>2022-08-04T16:18:34Z</time>
      </trkpt>
      <trkpt lat="48.4494" lon="7.26568">
        <ele>922</ele>
        <time>2022-08-04T16:20:45Z</time>
      </trkpt>
      <trkpt lat="48.44966" lon="7.26678">
        <ele>929</ele>
        <time>2022-08-04T16:22:28Z</time>
      </trkpt>
      <trkpt lat="48.44986" lon="7.26797">
        <ele>934</ele>
        <time>2022-08-04T16:24:17Z</time>
      </trkpt>
      <trkpt lat="48.44999" lon="7.26919">
        <ele>941</ele>
        <time>2022-08-04T16:26:06Z</time>
      </trkpt>
      <trkpt lat="48.45005" lon="7.27008">
        <ele>944</ele>
        <time>2022-08-04T16:27:25Z</time>
      </trkpt>
      <trkpt lat="48.44992" lon="7.2708">
        <ele>951</ele>
        <time>2022-08-04T16:28:31Z</time>
      </trkpt>
      <trkpt lat="48.44973" lon="7.27159">
        <ele>957</ele>
        <time>2022-08-04T16:29:46Z</time>
      </trkpt>
      <trkpt lat="48.44948" lon="7.27318">
        <ele>971</ele>
        <time>2022-08-04T16:32:10Z</time>
      </trkpt>
      <trkpt lat="48.44933" lon="7.27452">
        <ele>975</ele>
        <time>2022-08-04T16:34:11Z</time>
      </trkpt>
      <trkpt lat="48.44935" lon="7.27624">
        <ele>972</ele>
        <time>2022-08-04T16:36:43Z</time>
      </trkpt>
      <trkpt lat="48.4493" lon="7.27714">
        <ele>973</ele>
        <time>2022-08-04T16:38:03Z</time>
      </trkpt>
      <trkpt lat="48.44914" lon="7.27796">
        <ele>978</ele>
        <time>2022-08-04T16:39:19Z</time>
      </trkpt>
      <trkpt lat="48.44811" lon="7.27886">
        <ele>994</ele>
        <time>2022-08-04T16:41:57Z</time>
      </trkpt>
      <trkpt lat="48.4474" lon="7.28099">
        <ele>987</ele>
        <time>2022-08-04T16:45:28Z</time>
      </trkpt>
      <trkpt lat="48.44728" lon="7.28122">
        <ele>986</ele>
        <time>2022-08-04T16:45:54Z</time>
      </trkpt>
      <trkpt lat="48.44741" lon="7.28188">
        <ele>991</ele>
        <time>2022-08-04T16:46:55Z</time>
      </trkpt>
      <trkpt lat="48.44767" lon="7.28248">
        <ele>994</ele>
        <time>2022-08-04T16:47:59Z</time>
      </trkpt>
      <trkpt lat="48.447" lon="7.28355">
        <ele>1003</ele>
        <time>2022-08-04T16:50:09Z</time>
      </trkpt>
      <trkpt lat="48.44648" lon="7.28409">
        <ele>1009</ele>
        <time>2022-08-04T16:51:33Z</time>
      </trkpt>
      <trkpt lat="48.44614" lon="7.28486">
        <ele>1015</ele>
        <time>2022-08-04T16:52:55Z</time>
      </trkpt>
      <trkpt lat="48.4458" lon="7.28532">
        <ele>1016</ele>
        <time>2022-08-04T16:53:56Z</time>
      </trkpt>
      <trkpt lat="48.44554" lon="7.28542">
        <ele>1018</ele>
        <time>2022-08-04T16:54:32Z</time>
      </trkpt>
      <trkpt lat="48.44533" lon="7.28603">
        <ele>1025</ele>
        <time>2022-08-04T16:55:33Z</time>
      </trkpt>
      <trkpt lat="48.44455" lon="7.28592">
        <ele>1026</ele>
        <time>2022-08-04T16:57:17Z</time>
      </trkpt>
      <trkpt lat="48.44398" lon="7.28568">
        <ele>1024</ele>
        <time>2022-08-04T16:58:36Z</time>
      </trkpt>
      <trkpt lat="48.44367" lon="7.28578">
        <ele>1022</ele>
        <time>2022-08-04T16:59:18Z</time>
      </trkpt>
      <trkpt lat="48.4433" lon="7.28596">
        <ele>1020</ele>
        <time>2022-08-04T17:00:10Z</time>
      </trkpt>
      <trkpt lat="48.44195" lon="7.28787">
        <ele>1010</ele>
        <time>2022-08-04T17:04:17Z</time>
      </trkpt>
      <trkpt lat="48.44143" lon="7.28837">
        <ele>1007</ele>
        <time>2022-08-04T17:05:40Z</time>
      </trkpt>
      <trkpt lat="48.44059" lon="7.28906">
        <ele>1004</ele>
        <time>2022-08-04T17:07:47Z</time>
      </trkpt>
      <trkpt lat="48.44015" lon="7.28926">
        <ele>1001</ele>
        <time>2022-08-04T17:08:49Z</time>
      </trkpt>
      <trkpt lat="48.43967" lon="7.28958">
        <ele>1002</ele>
        <time>2022-08-04T17:09:59Z</time>
      </trkpt>
      <trkpt lat="48.4391" lon="7.28988">
        <ele>1002</ele>
        <time>2022-08-04T17:11:19Z</time>
      </trkpt>
      <trkpt lat="48.4387" lon="7.29021">
        <ele>1003</ele>
        <time>2022-08-04T17:12:20Z</time>
      </trkpt>
      <trkpt lat="48.43822" lon="7.29098">
        <ele>1004</ele>
        <time>2022-08-04T17:13:54Z</time>
      </trkpt>
      <trkpt lat="48.43751" lon="7.29244">
        <ele>1000</ele>
        <time>2022-08-04T17:16:34Z</time>
      </trkpt>
      <trkpt lat="48.43687" lon="7.29467">
        <ele>1000</ele>
        <time>2022-08-04T17:20:09Z</time>
      </trkpt>
      <trkpt lat="48.43633" lon="7.29539">
        <ele>999</ele>
        <time>2022-08-04T17:21:45Z</time>
      </trkpt>
      <trkpt lat="48.43572" lon="7.29535">
        <ele>1000</ele>
        <time>2022-08-04T17:23:07Z</time>
      </trkpt>
      <trkpt lat="48.43514" lon="7.2956">
        <ele>1001</ele>
        <time>2022-08-04T17:24:27Z</time>
      </trkpt>
      <trkpt lat="48.43476" lon="7.29569">
        <ele>1002</ele>
        <time>2022-08-04T17:25:19Z</time>
      </trkpt>
      <trkpt lat="48.43436" lon="7.29575">
        <ele>1003</ele>
        <time>2022-08-04T17:26:12Z</time>
      </trkpt>
      <trkpt lat="48.43413" lon="7.29591">
        <ele>1005</ele>
        <time>2022-08-04T17:26:46Z</time>
      </trkpt>
      <trkpt lat="48.43266" lon="7.29723">
        <ele>1010</ele>
        <time>2022-08-04T17:30:34Z</time>
      </trkpt>
      <trkpt lat="48.4321" lon="7.29791">
        <ele>1010</ele>
        <time>2022-08-04T17:32:10Z</time>
      </trkpt>
      <trkpt lat="48.43125" lon="7.29867">
        <ele>1011</ele>
        <time>2022-08-04T17:34:22Z</time>
      </trkpt>
      <trkpt lat="48.4308" lon="7.29916">
        <ele>1013</ele>
        <time>2022-08-04T17:35:36Z</time>
      </trkpt>
      <trkpt lat="48.43008" lon="7.30001">
        <ele>1017</ele>
        <time>2022-08-04T17:37:38Z</time>
      </trkpt>
      <trkpt lat="48.42977" lon="7.30023">
        <ele>1019</ele>
        <time>2022-08-04T17:38:24Z</time>
      </trkpt>
      <trkpt lat="48.42932" lon="7.29839">
        <ele>1022</ele>
        <time>2022-08-04T17:41:18Z</time>
      </trkpt>
      <trkpt lat="48.42853" lon="7.29621">
        <ele>1021</ele>
        <time>2022-08-04T17:44:58Z</time>
      </trkpt>
      <trkpt lat="48.42788" lon="7.29485">
        <ele>1023</ele>
        <time>2022-08-04T17:47:26Z</time>
      </trkpt>
      <trkpt lat="48.42725" lon="7.29425">
        <ele>1021</ele>
        <time>2022-08-04T17:49:06Z</time>
      </trkpt>
      <trkpt lat="48.42709" lon="7.29426">
        <ele>1022</ele>
        <time>2022-08-04T17:49:27Z</time>
      </trkpt>
      <trkpt lat="48.42648" lon="7.29461">
        <ele>1028</ele>
        <time>2022-08-04T17:50:54Z</time>
      </trkpt>
      <trkpt lat="48.42574" lon="7.29532">
        <ele>1034</ele>
        <time>2022-08-04T17:52:51Z</time>
      </trkpt>
      <trkpt lat="48.42512" lon="7.29584">
        <ele>1035</ele>
        <time>2022-08-04T17:54:26Z</time>
      </trkpt>
      <trkpt lat="48.42436" lon="7.29621">
        <ele>1034</ele>
        <time>2022-08-04T17:56:12Z</time>
      </trkpt>
      <trkpt lat="48.42369" lon="7.29627">
        <ele>1035</ele>
        <time>2022-08-04T17:57:42Z</time>
      </trkpt>
      <trkpt lat="48.42309" lon="7.29558">
        <ele>1035</ele>
        <time>2022-08-04T17:59:23Z</time>
      </trkpt>
      <trkpt lat="48.42277" lon="7.29529">
        <ele>1038</ele>
        <time>2022-08-04T18:00:13Z</time>
      </trkpt>
      <trkpt lat="48.42216" lon="7.29498">
        <ele>1042</ele>
        <time>2022-08-04T18:01:38Z</time>
      </trkpt>
      <trkpt lat="48.42153" lon="7.29489">
        <ele>1041</ele>
        <time>2022-08-04T18:03:03Z</time>
      </trkpt>
      <trkpt lat="48.42107" lon="7.29447">
        <ele>1036</ele>
        <time>2022-08-04T18:04:15Z</time>
      </trkpt>
      <trkpt lat="48.42081" lon="7.29445">
        <ele>1035</ele>
        <time>2022-08-04T18:04:49Z</time>
      </trkpt>
      <trkpt lat="48.42045" lon="7.29464">
        <ele>1032</ele>
        <time>2022-08-04T18:05:40Z</time>
      </trkpt>
      <trkpt lat="48.42023" lon="7.29519">
        <ele>1031</ele>
        <time>2022-08-04T18:06:37Z</time>
      </trkpt>
      <trkpt lat="48.41955" lon="7.29462">
        <ele>1024</ele>
        <time>2022-08-04T18:08:21Z</time>
      </trkpt>
      <trkpt lat="48.41912" lon="7.2944">
        <ele>1021</ele>
        <time>2022-08-04T18:09:22Z</time>
      </trkpt>
      <trkpt lat="48.41859" lon="7.29383">
        <ele>1018</ele>
        <time>2022-08-04T18:10:48Z</time>
      </trkpt>
      <trkpt lat="48.41782" lon="7.29375">
        <ele>1010</ele>
        <time>2022-08-04T18:12:31Z</time>
      </trkpt>
      <trkpt lat="48.41746" lon="7.29377">
        <ele>1005</ele>
        <time>2022-08-04T18:13:20Z</time>
      </trkpt>
      <trkpt lat="48.41682" lon="7.2936">
        <ele>997</ele>
        <time>2022-08-04T18:14:46Z</time>
      </trkpt>
      <trkpt lat="48.41641" lon="7.2934">
        <ele>994</ele>
        <time>2022-08-04T18:15:44Z</time>
      </trkpt>
      <trkpt lat="48.41591" lon="7.29334">
        <ele>989</ele>
        <time>2022-08-04T18:16:51Z</time>
      </trkpt>
      <trkpt lat="48.41471" lon="7.29368">
        <ele>961</ele>
        <time>2022-08-04T18:19:34Z</time>
      </trkpt>
      <trkpt lat="48.41444" lon="7.29366">
        <ele>955</ele>
        <time>2022-08-04T18:20:10Z</time>
      </trkpt>
      <trkpt lat="48.41346" lon="7.29303">
        <ele>944</ele>
        <time>2022-08-04T18:22:32Z</time>
      </trkpt>
      <trkpt lat="48.41311" lon="7.29277">
        <ele>945</ele>
        <time>2022-08-04T18:23:24Z</time>
      </trkpt>
      <trkpt lat="48.41294" lon="7.29246">
        <ele>951</ele>
        <time>2022-08-04T18:24:00Z</time>
      </trkpt>
      <trkpt lat="48.41242" lon="7.29228">
        <ele>950</ele>
        <time>2022-08-04T18:25:11Z</time>
      </trkpt>
      <trkpt lat="48.41203" lon="7.29228">
        <ele>948</ele>
        <time>2022-08-04T18:26:03Z</time>
      </trkpt>
      <trkpt lat="48.41152" lon="7.29207">
        <ele>949</ele>
        <time>2022-08-04T18:27:13Z</time>
      </trkpt>
      <trkpt lat="48.41077" lon="7.2913">
        <ele>957</ele>
        <time>2022-08-04T18:29:15Z</time>
      </trkpt>
      <trkpt lat="48.41047" lon="7.29067">
        <ele>966</ele>
        <time>2022-08-04T18:30:23Z</time>
      </trkpt>
      <trkpt lat="48.41025" lon="7.29027">
        <ele>971</ele>
        <time>2022-08-04T18:31:09Z</time>
      </trkpt>
      <trkpt lat="48.40986" lon="7.28989">
        <ele>975</ele>
        <time>2022-08-04T18:32:11Z</time>
      </trkpt>
      <trkpt lat="48.40946" lon="7.2899">
        <ele>972</ele>
        <time>2022-08-04T18:33:05Z</time>
      </trkpt>
      <trkpt lat="48.40892" lon="7.28963">
        <ele>972</ele>
        <time>2022-08-04T18:34:21Z</time>
      </trkpt>
      <trkpt lat="48.40863" lon="7.28936">
        <ele>972</ele>
        <time>2022-08-04T18:35:06Z</time>
      </trkpt>
      <trkpt lat="48.40836" lon="7.28889">
        <ele>975</ele>
        <time>2022-08-04T18:36:01Z</time>
      </trkpt>
      <trkpt lat="48.408" lon="7.28811">
        <ele>977</ele>
        <time>2022-08-04T18:37:25Z</time>
      </trkpt>
      <trkpt lat="48.40754" lon="7.28652">
        <ele>985</ele>
        <time>2022-08-04T18:39:59Z</time>
      </trkpt>
      <trkpt lat="48.40751" lon="7.28596">
        <ele>989</ele>
        <time>2022-08-04T18:40:49Z</time>
      </trkpt>
      <trkpt lat="48.40764" lon="7.28474">
        <ele>998</ele>
        <time>2022-08-04T18:42:38Z</time>
      </trkpt>
      <trkpt lat="48.40761" lon="7.28306">
        <ele>1009</ele>
        <time>2022-08-04T18:45:07Z</time>
      </trkpt>
      <trkpt lat="48.40718" lon="7.28032">
        <ele>1020</ele>
        <time>2022-08-04T18:49:16Z</time>
      </trkpt>
      <trkpt lat="48.40706" lon="7.2793">
        <ele>1024</ele>
        <time>2022-08-04T18:50:48Z</time>
      </trkpt>
      <trkpt lat="48.40691" lon="7.27765">
        <ele>1028</ele>
        <time>2022-08-04T18:53:16Z</time>
      </trkpt>
      <trkpt lat="48.40694" lon="7.27659">
        <ele>1035</ele>
        <time>2022-08-04T18:54:50Z</time>
      </trkpt>
      <trkpt lat="48.40702" lon="7.27546">
        <ele>1049</ele>
        <time>2022-08-04T18:56:30Z</time>
      </trkpt>
      <trkpt lat="48.40664" lon="7.27519">
        <ele>1050</ele>
        <time>2022-08-04T18:57:26Z</time>
      </trkpt>
      <trkpt lat="48.40638" lon="7.27511">
        <ele>1049</ele>
        <time>2022-08-04T18:58:02Z</time>
      </trkpt>
      <trkpt lat="48.40601" lon="7.27479">
        <ele>1050</ele>
        <time>2022-08-04T18:58:59Z</time>
      </trkpt>
      <trkpt lat="48.40546" lon="7.27421">
        <ele>1057</ele>
        <time>2022-08-04T19:00:28Z</time>
      </trkpt>
      <trkpt lat="48.40509" lon="7.27408">
        <ele>1057</ele>
        <time>2022-08-04T19:01:19Z</time>
      </trkpt>
      <trkpt lat="48.40425" lon="7.27391">
        <ele>1064</ele>
        <time>2022-08-04T19:03:12Z</time>
      </trkpt>
      <trkpt lat="48.40381" lon="7.27387">
        <ele>1065</ele>
        <time>2022-08-04T19:04:11Z</time>
      </trkpt>
      <trkpt lat="48.40287" lon="7.27347">
        <ele>1071</ele>
        <time>2022-08-04T19:06:21Z</time>
      </trkpt>
      <trkpt lat="48.40234" lon="7.27344">
        <ele>1070</ele>
        <time>2022-08-04T19:07:32Z</time>
      </trkpt>
      <trkpt lat="48.40171" lon="7.27318">
        <ele>1070</ele>
        <time>2022-08-04T19:08:59Z</time>
      </trkpt>
      <trkpt lat="48.40122" lon="7.27294">
        <ele>1066</ele>
        <time>2022-08-04T19:10:08Z</time>
      </trkpt>
      <trkpt lat="48.401" lon="7.27256">
        <ele>1068</ele>
        <time>2022-08-04T19:10:53Z</time>
      </trkpt>
      <trkpt lat="48.40087" lon="7.27221">
        <ele>1070</ele>
        <time>2022-08-04T19:11:28Z</time>
      </trkpt>
      <trkpt lat="48.40091" lon="7.27162">
        <ele>1076</ele>
        <time>2022-08-04T19:12:21Z</time>
      </trkpt>
      <trkpt lat="48.4005" lon="7.27009">
        <ele>1076</ele>
        <time>2022-08-04T19:14:47Z</time>
      </trkpt>
      <trkpt lat="48.40014" lon="7.26971">
        <ele>1074</ele>
        <time>2022-08-04T19:15:46Z</time>
      </trkpt>
      <trkpt lat="48.40006" lon="7.26915">
        <ele>1075</ele>
        <time>2022-08-04T19:16:36Z</time>
      </trkpt>
      <trkpt lat="48.39993" lon="7.26897">
        <ele>1074</ele>
        <time>2022-08-04T19:17:00Z</time>
      </trkpt>
      <trkpt lat="48.39962" lon="7.26797">
        <ele>1074</ele>
        <time>2022-08-04T19:18:38Z</time>
      </trkpt>
      <trkpt lat="48.39916" lon="7.26763">
        <ele>1076</ele>
        <time>2022-08-04T19:19:46Z</time>
      </trkpt>
      <trkpt lat="48.39855" lon="7.26697">
        <ele>1079</ele>
        <time>2022-08-04T19:21:26Z</time>
      </trkpt>
      <trkpt lat="48.39839" lon="7.26713">
        <ele>1080</ele>
        <time>2022-08-04T19:21:52Z</time>
      </trkpt>
      <trkpt lat="48.39729" lon="7.26696">
        <ele>1085</ele>
        <time>2022-08-04T19:24:20Z</time>
      </trkpt>
      <trkpt lat="48.39728" lon="7.26756">
        <ele>1086</ele>
        <time>2022-08-04T19:25:13Z</time>
      </trkpt>
      <trkpt lat="48.3973" lon="7.26795">
        <ele>1085</ele>
        <time>2022-08-04T19:25:47Z</time>
      </trkpt>
      <trkpt lat="48.39719" lon="7.26812">
        <ele>1086</ele>
        <time>2022-08-04T19:26:08Z</time>
      </trkpt>
      <trkpt lat="48.39675" lon="7.26835">
        <ele>1092</ele>
        <time>2022-08-04T19:27:11Z</time>
      </trkpt>
      <trkpt lat="48.39522" lon="7.26879">
        <ele>1099</ele>
        <time>2022-08-04T19:30:38Z</time>
      </trkpt>
      <trkpt lat="48.39494" lon="7.26894">
        <ele>1100</ele>
        <time>2022-08-04T19:31:18Z</time>
      </trkpt>
      <trkpt lat="48.39476" lon="7.26894">
        <ele>1100</ele>
        <time>2022-08-04T19:31:42Z</time>
      </trkpt>
      <trkpt lat="48.39447" lon="7.26869">
        <ele>1098</ele>
        <time>2022-08-04T19:32:27Z</time>
      </trkpt>
      <trkpt lat="48.39425" lon="7.26884">
        <ele>1097</ele>
        <time>2022-08-04T19:32:59Z</time>
      </trkpt>
      <trkpt lat="48.39408" lon="7.26887">
        <ele>1097</ele>
        <time>2022-08-04T19:33:22Z</time>
      </trkpt>
      <trkpt lat="48.39388" lon="7.26867">
        <ele>1096</ele>
        <time>2022-08-04T19:33:54Z</time>
      </trkpt>
      <trkpt lat="48.39344" lon="7.26844">
        <ele>1095</ele>
        <time>2022-08-04T19:34:56Z</time>
      </trkpt>
      <trkpt lat="48.39267" lon="7.26828">
        <ele>1088</ele>
        <time>2022-08-04T19:36:40Z</time>
      </trkpt>
      <trkpt lat="48.39218" lon="7.26808">
        <ele>1082</ele>
        <time>2022-08-04T19:37:47Z</time>
      </trkpt>
      <trkpt lat="48.39156" lon="7.26771">
        <ele>1072</ele>
        <time>2022-08-04T19:39:16Z</time>
      </trkpt>
      <trkpt lat="48.39126" lon="7.26746">
        <ele>1068</ele>
        <time>2022-08-04T19:40:02Z</time>
      </trkpt>
      <trkpt lat="48.39074" lon="7.26721">
        <ele>1063</ele>
        <time>2022-08-04T19:41:15Z</time>
      </trkpt>
      <trkpt lat="48.39042" lon="7.2669">
        <ele>1059</ele>
        <time>2022-08-04T19:42:06Z</time>
      </trkpt>
      <trkpt lat="48.38994" lon="7.26607">
        <ele>1050</ele>
        <time>2022-08-04T19:43:43Z</time>
      </trkpt>
      <trkpt lat="48.38916" lon="7.26447">
        <ele>1033</ele>
        <time>2022-08-04T19:46:39Z</time>
      </trkpt>
      <trkpt lat="48.38892" lon="7.26363">
        <ele>1024</ele>
        <time>2022-08-04T19:48:00Z</time>
      </trkpt>
      <trkpt lat="48.38873" lon="7.26265">
        <ele>1018</ele>
        <time>2022-08-04T19:49:31Z</time>
      </trkpt>
      <trkpt lat="48.38843" lon="7.26183">
        <ele>1015</ele>
        <time>2022-08-04T19:50:54Z</time>
      </trkpt>
      <trkpt lat="48.38795" lon="7.26032">
        <ele>1001</ele>
        <time>2022-08-04T19:53:22Z</time>
      </trkpt>
      <trkpt lat="48.38767" lon="7.26009">
        <ele>1001</ele>
        <time>2022-08-04T19:54:05Z</time>
      </trkpt>
      <trkpt lat="48.38729" lon="7.25927">
        <ele>992</ele>
        <time>2022-08-04T19:55:33Z</time>
      </trkpt>
      <trkpt lat="48.38693" lon="7.25864">
        <ele>983</ele>
        <time>2022-08-04T19:56:47Z</time>
      </trkpt>
      <trkpt lat="48.38661" lon="7.25836">
        <ele>980</ele>
        <time>2022-08-04T19:57:36Z</time>
      </trkpt>
      <trkpt lat="48.38638" lon="7.2578">
        <ele>979</ele>
        <time>2022-08-04T19:58:35Z</time>
      </trkpt>
      <trkpt lat="48.38599" lon="7.25754">
        <ele>979</ele>
        <time>2022-08-04T19:59:32Z</time>
      </trkpt>
      <trkpt lat="48.38568" lon="7.25757">
        <ele>980</ele>
        <time>2022-08-04T20:00:13Z</time>
      </trkpt>
      <trkpt lat="48.38524" lon="7.25779">
        <ele>980</ele>
        <time>2022-08-04T20:01:15Z</time>
      </trkpt>
      <trkpt lat="48.38488" lon="7.25776">
        <ele>977</ele>
        <time>2022-08-04T20:02:03Z</time>
      </trkpt>
      <trkpt lat="48.38417" lon="7.25775">
        <ele>971</ele>
        <time>2022-08-04T20:03:38Z</time>
      </trkpt>
      <trkpt lat="48.38374" lon="7.25781">
        <ele>968</ele>
        <time>2022-08-04T20:04:35Z</time>
      </trkpt>
      <trkpt lat="48.38321" lon="7.2569">
        <ele>968</ele>
        <time>2022-08-04T20:06:23Z</time>
      </trkpt>
      <trkpt lat="48.38283" lon="7.25687">
        <ele>973</ele>
        <time>2022-08-04T20:07:13Z</time>
      </trkpt>
      <trkpt lat="48.38238" lon="7.25646">
        <ele>978</ele>
        <time>2022-08-04T20:08:24Z</time>
      </trkpt>
      <trkpt lat="48.38192" lon="7.2563">
        <ele>982</ele>
        <time>2022-08-04T20:09:27Z</time>
      </trkpt>
      <trkpt lat="48.3815" lon="7.25599">
        <ele>985</ele>
        <time>2022-08-04T20:10:29Z</time>
      </trkpt>
      <trkpt lat="48.38136" lon="7.25563">
        <ele>985</ele>
        <time>2022-08-04T20:11:06Z</time>
      </trkpt>
      <trkpt lat="48.38124" lon="7.25517">
        <ele>986</ele>
        <time>2022-08-04T20:11:50Z</time>
      </trkpt>
      <trkpt lat="48.38118" lon="7.25462">
        <ele>985</ele>
        <time>2022-08-04T20:12:39Z</time>
      </trkpt>
      <trkpt lat="48.38129" lon="7.25402">
        <ele>983</ele>
        <time>2022-08-04T20:13:34Z</time>
      </trkpt>
      <trkpt lat="48.38137" lon="7.25302">
        <ele>979</ele>
        <time>2022-08-04T20:15:04Z</time>
      </trkpt>
      <trkpt lat="48.38099" lon="7.25298">
        <ele>978</ele>
        <time>2022-08-04T20:15:54Z</time>
      </trkpt>
      <trkpt lat="48.38056" lon="7.25268">
        <ele>973</ele>
        <time>2022-08-04T20:16:58Z</time>
      </trkpt>
      <trkpt lat="48.38027" lon="7.25257">
        <ele>968</ele>
        <time>2022-08-04T20:17:38Z</time>
      </trkpt>
      <trkpt lat="48.37993" lon="7.25208">
        <ele>967</ele>
        <time>2022-08-04T20:18:40Z</time>
      </trkpt>
      <trkpt lat="48.37897" lon="7.25127">
        <ele>956</ele>
        <time>2022-08-04T20:21:07Z</time>
      </trkpt>
      <trkpt lat="48.37857" lon="7.25101">
        <ele>949</ele>
        <time>2022-08-04T20:22:05Z</time>
      </trkpt>
      <trkpt lat="48.37797" lon="7.25092">
        <ele>937</ele>
        <time>2022-08-04T20:23:26Z</time>
      </trkpt>
      <trkpt lat="48.37744" lon="7.25047">
        <ele>931</ele>
        <time>2022-08-04T20:24:47Z</time>
      </trkpt>
      <trkpt lat="48.37702" lon="7.24997">
        <ele>926</ele>
        <time>2022-08-04T20:25:59Z</time>
      </trkpt>
      <trkpt lat="48.37716" lon="7.24898">
        <ele>923</ele>
        <time>2022-08-04T20:27:28Z</time>
      </trkpt>
      <trkpt lat="48.37727" lon="7.2484">
        <ele>917</ele>
        <time>2022-08-04T20:28:22Z</time>
      </trkpt>
      <trkpt lat="48.37755" lon="7.24796">
        <ele>918</ele>
        <time>2022-08-04T20:29:16Z</time>
      </trkpt>
      <trkpt lat="48.37801" lon="7.24752">
        <ele>921</ele>
        <time>2022-08-04T20:30:28Z</time>
      </trkpt>
      <trkpt lat="48.37867" lon="7.24619">
        <ele>911</ele>
        <time>2022-08-04T20:32:56Z</time>
      </trkpt>
      <trkpt lat="48.37893" lon="7.24543">
        <ele>901</ele>
        <time>2022-08-04T20:34:11Z</time>
      </trkpt>
      <trkpt lat="48.37931" lon="7.24498">
        <ele>907</ele>
        <time>2022-08-04T20:35:16Z</time>
      </trkpt>
      <trkpt lat="48.37946" lon="7.24464">
        <ele>915</ele>
        <time>2022-08-04T20:35:52Z</time>
      </trkpt>
      <trkpt lat="48.3793" lon="7.24385">
        <ele>913</ele>
        <time>2022-08-04T20:37:05Z</time>
      </trkpt>
      <trkpt lat="48.37886" lon="7.24298">
        <ele>903</ele>
        <time>2022-08-04T20:38:42Z</time>
      </trkpt>
      <trkpt lat="48.37849" lon="7.24257">
        <ele>890</ele>
        <time>2022-08-04T20:39:43Z</time>
      </trkpt>
      <trkpt lat="48.37827" lon="7.24228">
        <ele>882</ele>
        <time>2022-08-04T20:40:23Z</time>
      </trkpt>
      <trkpt lat="48.37797" lon="7.24112">
        <ele>871</ele>
        <time>2022-08-04T20:42:13Z</time>
      </trkpt>
      <trkpt lat="48.37802" lon="7.24071">
        <ele>872</ele>
        <time>2022-08-04T20:42:50Z</time>
      </trkpt>
      <trkpt lat="48.378" lon="7.2402">
        <ele>868</ele>
        <time>2022-08-04T20:43:35Z</time>
      </trkpt>
      <trkpt lat="48.37784" lon="7.23951">
        <ele>860</ele>
        <time>2022-08-04T20:44:40Z</time>
      </trkpt>
      <trkpt lat="48.37765" lon="7.2391">
        <ele>853</ele>
        <time>2022-08-04T20:45:24Z</time>
      </trkpt>
      <trkpt lat="48.37715" lon="7.23838">
        <ele>836</ele>
        <time>2022-08-04T20:46:57Z</time>
      </trkpt>
      <trkpt lat="48.37666" lon="7.23703">
        <ele>821</ele>
        <time>2022-08-04T20:49:13Z</time>
      </trkpt>
      <trkpt lat="48.37616" lon="7.23656">
        <ele>812</ele>
        <time>2022-08-04T20:50:32Z</time>
      </trkpt>
      <trkpt lat="48.37597" lon="7.23624">
        <ele>806</ele>
        <time>2022-08-04T20:51:10Z</time>
      </trkpt>
      <trkpt lat="48.37546" lon="7.23582">
        <ele>803</ele>
        <time>2022-08-04T20:52:27Z</time>
      </trkpt>
      <trkpt lat="48.3749" lon="7.23539">
        <ele>796</ele>
        <time>2022-08-04T20:53:51Z</time>
      </trkpt>
      <trkpt lat="48.37438" lon="7.23527">
        <ele>787</ele>
        <time>2022-08-04T20:55:01Z</time>
      </trkpt>
      <trkpt lat="48.37412" lon="7.23423">
        <ele>769</ele>
        <time>2022-08-04T20:56:40Z</time>
      </trkpt>
      <trkpt lat="48.37398" lon="7.23334">
        <ele>753</ele>
        <time>2022-08-04T20:58:01Z</time>
      </trkpt>
      <trkpt lat="48.37406" lon="7.23263">
        <ele>748</ele>
        <time>2022-08-04T20:59:05Z</time>
      </trkpt>
      <trkpt lat="48.37413" lon="7.23139">
        <ele>749</ele>
        <time>2022-08-04T21:00:55Z</time>
      </trkpt>
      <trkpt lat="48.37407" lon="7.23056">
        <ele>750</ele>
        <time>2022-08-04T21:02:09Z</time>
      </trkpt>
      <trkpt lat="48.37395" lon="7.22958">
        <ele>746</ele>
        <time>2022-08-04T21:03:37Z</time>
      </trkpt>
      <trkpt lat="48.37378" lon="7.22898">
        <ele>741</ele>
        <time>2022-08-04T21:04:35Z</time>
      </trkpt>
      <trkpt lat="48.37354" lon="7.22848">
        <ele>739</ele>
        <time>2022-08-04T21:05:30Z</time>
      </trkpt>
      <trkpt lat="48.37346" lon="7.22823">
        <ele>740</ele>
        <time>2022-08-04T21:05:54Z</time>
      </trkpt>
      <trkpt lat="48.37365" lon="7.22802">
        <ele>739</ele>
        <time>2022-08-04T21:06:26Z</time>
      </trkpt>
      <trkpt lat="48.37361" lon="7.22769">
        <ele>739</ele>
        <time>2022-08-04T21:06:56Z</time>
      </trkpt>
      <trkpt lat="48.37336" lon="7.22766">
        <ele>743</ele>
        <time>2022-08-04T21:07:29Z</time>
      </trkpt>
      <trkpt lat="48.37328" lon="7.22731">
        <ele>744</ele>
        <time>2022-08-04T21:08:02Z</time>
      </trkpt>
      <trkpt lat="48.37326" lon="7.22553">
        <ele>748</ele>
        <time>2022-08-04T21:10:40Z</time>
      </trkpt>
      <trkpt lat="48.37314" lon="7.22494">
        <ele>742</ele>
        <time>2022-08-04T21:11:34Z</time>
      </trkpt>
      <trkpt lat="48.37306" lon="7.22432">
        <ele>738</ele>
        <time>2022-08-04T21:12:30Z</time>
      </trkpt>
      <trkpt lat="48.37312" lon="7.22386">
        <ele>735</ele>
        <time>2022-08-04T21:13:12Z</time>
      </trkpt>
      <trkpt lat="48.37302" lon="7.22329">
        <ele>729</ele>
        <time>2022-08-04T21:14:04Z</time>
      </trkpt>
      <trkpt lat="48.37302" lon="7.22154">
        <ele>714</ele>
        <time>2022-08-04T21:16:39Z</time>
      </trkpt>
      <trkpt lat="48.37281" lon="7.22104">
        <ele>711</ele>
        <time>2022-08-04T21:17:32Z</time>
      </trkpt>
      <trkpt lat="48.3727" lon="7.22067">
        <ele>710</ele>
        <time>2022-08-04T21:18:08Z</time>
      </trkpt>
      <trkpt lat="48.37263" lon="7.21996">
        <ele>707</ele>
        <time>2022-08-04T21:19:11Z</time>
      </trkpt>
      <trkpt lat="48.37247" lon="7.21975">
        <ele>706</ele>
        <time>2022-08-04T21:19:40Z</time>
      </trkpt>
      <trkpt lat="48.37247" lon="7.21942">
        <ele>704</ele>
        <time>2022-08-04T21:20:09Z</time>
      </trkpt>
      <trkpt lat="48.37228" lon="7.21922">
        <ele>702</ele>
        <time>2022-08-04T21:20:40Z</time>
      </trkpt>
      <trkpt lat="48.37211" lon="7.21886">
        <ele>701</ele>
        <time>2022-08-04T21:21:19Z</time>
      </trkpt>
      <trkpt lat="48.372" lon="7.21911">
        <ele>700</ele>
        <time>2022-08-04T21:21:46Z</time>
      </trkpt>
      <trkpt lat="48.37089" lon="7.21905">
        <ele>686</ele>
        <time>2022-08-04T21:24:14Z</time>
      </trkpt>
      <trkpt lat="48.37063" lon="7.21783">
        <ele>708</ele>
        <time>2022-08-04T21:26:07Z</time>
      </trkpt>
      <trkpt lat="48.3703" lon="7.21687">
        <ele>712</ele>
        <time>2022-08-04T21:27:43Z</time>
      </trkpt>
      <trkpt lat="48.37021" lon="7.21639">
        <ele>714</ele>
        <time>2022-08-04T21:28:27Z</time>
      </trkpt>
      <trkpt lat="48.36997" lon="7.21572">
        <ele>708</ele>
        <time>2022-08-04T21:29:35Z</time>
      </trkpt>
      <trkpt lat="48.36948" lon="7.21469">
        <ele>685</ele>
        <time>2022-08-04T21:31:27Z</time>
      </trkpt>
      <trkpt lat="48.36888" lon="7.21275">
        <ele>656</ele>
        <time>2022-08-04T21:34:37Z</time>
      </trkpt>
      <trkpt lat="48.36855" lon="7.21128">
        <ele>637</ele>
        <time>2022-08-04T21:36:54Z</time>
      </trkpt>
      <trkpt lat="48.36832" lon="7.21048">
        <ele>628</ele>
        <time>2022-08-04T21:38:12Z</time>
      </trkpt>
      <trkpt lat="48.36815" lon="7.21003">
        <ele>619</ele>
        <time>2022-08-04T21:38:58Z</time>
      </trkpt>
      <trkpt lat="48.36798" lon="7.20943">
        <ele>613</ele>
        <time>2022-08-04T21:39:55Z</time>
      </trkpt>
      <trkpt lat="48.36728" lon="7.20784">
        <ele>584</ele>
        <time>2022-08-04T21:42:45Z</time>
      </trkpt>
      <trkpt lat="48.36684" lon="7.20669">
        <ele>578</ele>
        <time>2022-08-04T21:44:42Z</time>
      </trkpt>
      <trkpt lat="48.36639" lon="7.20579">
        <ele>576</ele>
        <time>2022-08-04T21:46:22Z</time>
      </trkpt>
      <trkpt lat="48.36581" lon="7.20455">
        <ele>580</ele>
        <time>2022-08-04T21:48:37Z</time>
      </trkpt>
      <trkpt lat="48.36547" lon="7.20406">
        <ele>575</ele>
        <time>2022-08-04T21:49:39Z</time>
      </trkpt>
      <trkpt lat="48.36534" lon="7.20372">
        <ele>573</ele>
        <time>2022-08-04T21:50:14Z</time>
      </trkpt>
      <trkpt lat="48.36478" lon="7.20318">
        <ele>563</ele>
        <time>2022-08-04T21:51:43Z</time>
      </trkpt>
      <trkpt lat="48.36433" lon="7.20251">
        <ele>553</ele>
        <time>2022-08-04T21:53:07Z</time>
      </trkpt>
      <trkpt lat="48.3642" lon="7.20236">
        <ele>550</ele>
        <time>2022-08-04T21:53:29Z</time>
      </trkpt>
      <trkpt lat="48.36411" lon="7.20206">
        <ele>546</ele>
        <time>2022-08-04T21:53:58Z</time>
      </trkpt>
      <trkpt lat="48.36376" lon="7.20139">
        <ele>541</ele>
        <time>2022-08-04T21:55:14Z</time>
      </trkpt>
      <trkpt lat="48.36368" lon="7.20036">
        <ele>541</ele>
        <time>2022-08-04T21:56:46Z</time>
      </trkpt>
      <trkpt lat="48.36368" lon="7.19974">
        <ele>540</ele>
        <time>2022-08-04T21:57:41Z</time>
      </trkpt>
      <trkpt lat="48.36382" lon="7.1994">
        <ele>538</ele>
        <time>2022-08-04T21:58:16Z</time>
      </trkpt>
      <trkpt lat="48.36371" lon="7.19926">
        <ele>539</ele>
        <time>2022-08-04T21:58:36Z</time>
      </trkpt>
      <trkpt lat="48.36338" lon="7.19831">
        <ele>535</ele>
        <time>2022-08-04T22:00:11Z</time>
      </trkpt>
      <trkpt lat="48.36322" lon="7.19836">
        <ele>537</ele>
        <time>2022-08-04T22:00:32Z</time>
      </trkpt>
      <trkpt lat="48.363" lon="7.19835">
        <ele>541</ele>
        <time>2022-08-04T22:01:02Z</time>
      </trkpt>
      <trkpt lat="48.36267" lon="7.1982">
        <ele>546</ele>
        <time>2022-08-04T22:01:48Z</time>
      </trkpt>
      <trkpt lat="48.3626" lon="7.19777">
        <ele>546</ele>
        <time>2022-08-04T22:02:27Z</time>
      </trkpt>
      <trkpt lat="48.36262" lon="7.19694">
        <ele>547</ele>
        <time>2022-08-04T22:03:41Z</time>
      </trkpt>
      <trkpt lat="48.36244" lon="7.19677">
        <ele>549</ele>
        <time>2022-08-04T22:04:09Z</time>
      </trkpt>
      <trkpt lat="48.36198" lon="7.19615">
        <ele>556</ele>
        <time>2022-08-04T22:05:31Z</time>
      </trkpt>
      <trkpt lat="48.36141" lon="7.19566">
        <ele>564</ele>
        <time>2022-08-04T22:06:59Z</time>
      </trkpt>
      <trkpt lat="48.36081" lon="7.19496">
        <ele>568</ele>
        <time>2022-08-04T22:08:40Z</time>
      </trkpt>
      <trkpt lat="48.36046" lon="7.19437">
        <ele>569</ele>
        <time>2022-08-04T22:09:50Z</time>
      </trkpt>
      <trkpt lat="48.3602" lon="7.19382">
        <ele>571</ele>
        <time>2022-08-04T22:10:50Z</time>
      </trkpt>
      <trkpt lat="48.36002" lon="7.19377">
        <ele>573</ele>
        <time>2022-08-04T22:11:15Z</time>
      </trkpt>
      <trkpt lat="48.35959" lon="7.1935">
        <ele>573</ele>
        <time>2022-08-04T22:12:17Z</time>
      </trkpt>
      <trkpt lat="48.35943" lon="7.19347">
        <ele>574</ele>
        <time>2022-08-04T22:12:38Z</time>
      </trkpt>
      <trkpt lat="48.35872" lon="7.19288">
        <ele>575</ele>
        <time>2022-08-04T22:14:27Z</time>
      </trkpt>
      <trkpt lat="48.35851" lon="7.19266">
        <ele>577</ele>
        <time>2022-08-04T22:15:01Z</time>
      </trkpt>
      <trkpt lat="48.35826" lon="7.19265">
        <ele>579</ele>
        <time>2022-08-04T22:15:34Z</time>
      </trkpt>
      <trkpt lat="48.35802" lon="7.19251">
        <ele>582</ele>
        <time>2022-08-04T22:16:09Z</time>
      </trkpt>
      <trkpt lat="48.35776" lon="7.19225">
        <ele>585</ele>
        <time>2022-08-04T22:16:50Z</time>
      </trkpt>
      <trkpt lat="48.35746" lon="7.19215">
        <ele>589</ele>
        <time>2022-08-04T22:17:31Z</time>
      </trkpt>
      <trkpt lat="48.35723" lon="7.19219">
        <ele>594</ele>
        <time>2022-08-04T22:18:02Z</time>
      </trkpt>
      <trkpt lat="48.35696" lon="7.19214">
        <ele>599</ele>
        <time>2022-08-04T22:18:38Z</time>
      </trkpt>
      <trkpt lat="48.35645" lon="7.19149">
        <ele>608</ele>
        <time>2022-08-04T22:20:08Z</time>
      </trkpt>
      <trkpt lat="48.35615" lon="7.19134">
        <ele>612</ele>
        <time>2022-08-04T22:20:50Z</time>
      </trkpt>
      <trkpt lat="48.35534" lon="7.19119">
        <ele>623</ele>
        <time>2022-08-04T22:22:39Z</time>
      </trkpt>
      <trkpt lat="48.35492" lon="7.19092">
        <ele>627</ele>
        <time>2022-08-04T22:23:40Z</time>
      </trkpt>
      <trkpt lat="48.35454" lon="7.19085">
        <ele>627</ele>
        <time>2022-08-04T22:24:31Z</time>
      </trkpt>
      <trkpt lat="48.35434" lon="7.191">
        <ele>627</ele>
        <time>2022-08-04T22:25:01Z</time>
      </trkpt>
      <trkpt lat="48.35416" lon="7.19066">
        <ele>628</ele>
        <time>2022-08-04T22:25:39Z</time>
      </trkpt>
      <trkpt lat="48.35343" lon="7.18877">
        <ele>644</ele>
        <time>2022-08-04T22:28:53Z</time>
      </trkpt>
      <trkpt lat="48.35335" lon="7.18826">
        <ele>652</ele>
        <time>2022-08-04T22:29:39Z</time>
      </trkpt>
      <trkpt lat="48.35297" lon="7.18729">
        <ele>656</ele>
        <time>2022-08-04T22:31:19Z</time>
      </trkpt>
      <trkpt lat="48.35293" lon="7.18701">
        <ele>660</ele>
        <time>2022-08-04T22:31:45Z</time>
      </trkpt>
      <trkpt lat="48.35262" lon="7.1867">
        <ele>668</ele>
        <time>2022-08-04T22:32:34Z</time>
      </trkpt>
      <trkpt lat="48.3525" lon="7.18612">
        <ele>675</ele>
        <time>2022-08-04T22:33:28Z</time>
      </trkpt>
      <trkpt lat="48.35234" lon="7.18569">
        <ele>677</ele>
        <time>2022-08-04T22:34:12Z</time>
      </trkpt>
      <trkpt lat="48.35192" lon="7.18348">
        <ele>692</ele>
        <time>2022-08-04T22:37:36Z</time>
      </trkpt>
      <trkpt lat="48.35234" lon="7.18291">
        <ele>687</ele>
        <time>2022-08-04T22:38:51Z</time>
      </trkpt>
      <trkpt lat="48.35226" lon="7.18262">
        <ele>691</ele>
        <time>2022-08-04T22:39:19Z</time>
      </trkpt>
      <trkpt lat="48.35245" lon="7.18202">
        <ele>689</ele>
        <time>2022-08-04T22:40:18Z</time>
      </trkpt>
      <trkpt lat="48.35261" lon="7.18136">
        <ele>687</ele>
        <time>2022-08-04T22:41:20Z</time>
      </trkpt>
      <trkpt lat="48.35263" lon="7.18083">
        <ele>685</ele>
        <time>2022-08-04T22:42:07Z</time>
      </trkpt>
      <trkpt lat="48.35256" lon="7.1804">
        <ele>686</ele>
        <time>2022-08-04T22:42:47Z</time>
      </trkpt>
      <trkpt lat="48.35219" lon="7.17927">
        <ele>696</ele>
        <time>2022-08-04T22:44:38Z</time>
      </trkpt>
      <trkpt lat="48.35206" lon="7.17789">
        <ele>701</ele>
        <time>2022-08-04T22:46:42Z</time>
      </trkpt>
      <trkpt lat="48.35204" lon="7.17737">
        <ele>702</ele>
        <time>2022-08-04T22:47:28Z</time>
      </trkpt>
      <trkpt lat="48.35236" lon="7.17648">
        <ele>692</ele>
        <time>2022-08-04T22:48:58Z</time>
      </trkpt>
      <trkpt lat="48.3524" lon="7.17617">
        <ele>690</ele>
        <time>2022-08-04T22:49:26Z</time>
      </trkpt>
      <trkpt lat="48.35209" lon="7.17489">
        <ele>691</ele>
        <time>2022-08-04T22:51:27Z</time>
      </trkpt>
      <trkpt lat="48.35198" lon="7.174">
        <ele>690</ele>
        <time>2022-08-04T22:52:47Z</time>
      </trkpt>
      <trkpt lat="48.35183" lon="7.17328">
        <ele>688</ele>
        <time>2022-08-04T22:53:54Z</time>
      </trkpt>
      <trkpt lat="48.35171" lon="7.17288">
        <ele>689</ele>
        <time>2022-08-04T22:54:33Z</time>
      </trkpt>
      <trkpt lat="48.35152" lon="7.17259">
        <ele>691</ele>
        <time>2022-08-04T22:55:09Z</time>
      </trkpt>
      <trkpt lat="48.35122" lon="7.17203">
        <ele>691</ele>
        <time>2022-08-04T22:56:13Z</time>
      </trkpt>
      <trkpt lat="48.35084" lon="7.17073">
        <ele>685</ele>
        <time>2022-08-04T22:58:19Z</time>
      </trkpt>
      <trkpt lat="48.3506" lon="7.16952">
        <ele>679</ele>
        <time>2022-08-04T23:00:11Z</time>
      </trkpt>
      <trkpt lat="48.35038" lon="7.1692">
        <ele>682</ele>
        <time>2022-08-04T23:00:52Z</time>
      </trkpt>
      <trkpt lat="48.35003" lon="7.16849">
        <ele>685</ele>
        <time>2022-08-04T23:02:10Z</time>
      </trkpt>
      <trkpt lat="48.34984" lon="7.16823">
        <ele>685</ele>
        <time>2022-08-04T23:02:44Z</time>
      </trkpt>
      <trkpt lat="48.34946" lon="7.16789">
        <ele>685</ele>
        <time>2022-08-04T23:03:43Z</time>
      </trkpt>
      <trkpt lat="48.34902" lon="7.16722">
        <ele>682</ele>
        <time>2022-08-04T23:05:07Z</time>
      </trkpt>
      <trkpt lat="48.34871" lon="7.1666">
        <ele>679</ele>
        <time>2022-08-04T23:06:16Z</time>
      </trkpt>
      <trkpt lat="48.34837" lon="7.16624">
        <ele>677</ele>
        <time>2022-08-04T23:07:11Z</time>
      </trkpt>
      <trkpt lat="48.34814" lon="7.16609">
        <ele>678</ele>
        <time>2022-08-04T23:07:44Z</time>
      </trkpt>
      <trkpt lat="48.34788" lon="7.16569">
        <ele>677</ele>
        <time>2022-08-04T23:08:34Z</time>
      </trkpt>
      <trkpt lat="48.3476" lon="7.16539">
        <ele>677</ele>
        <time>2022-08-04T23:09:20Z</time>
      </trkpt>
      <trkpt lat="48.34693" lon="7.16451">
        <ele>674</ele>
        <time>2022-08-04T23:11:19Z</time>
      </trkpt>
      <trkpt lat="48.34663" lon="7.164">
        <ele>673</ele>
        <time>2022-08-04T23:12:19Z</time>
      </trkpt>
      <trkpt lat="48.34637" lon="7.16367">
        <ele>669</ele>
        <time>2022-08-04T23:13:04Z</time>
      </trkpt>
      <trkpt lat="48.34625" lon="7.16347">
        <ele>667</ele>
        <time>2022-08-04T23:13:28Z</time>
      </trkpt>
      <trkpt lat="48.34629" lon="7.16317">
        <ele>666</ele>
        <time>2022-08-04T23:13:55Z</time>
      </trkpt>
      <trkpt lat="48.34632" lon="7.16254">
        <ele>665</ele>
        <time>2022-08-04T23:14:51Z</time>
      </trkpt>
      <trkpt lat="48.34624" lon="7.16212">
        <ele>664</ele>
        <time>2022-08-04T23:15:30Z</time>
      </trkpt>
      <trkpt lat="48.34612" lon="7.16121">
        <ele>659</ele>
        <time>2022-08-04T23:16:53Z</time>
      </trkpt>
      <trkpt lat="48.34618" lon="7.16071">
        <ele>655</ele>
        <time>2022-08-04T23:17:38Z</time>
      </trkpt>
      <trkpt lat="48.34605" lon="7.15875">
        <ele>644</ele>
        <time>2022-08-04T23:20:32Z</time>
      </trkpt>
      <trkpt lat="48.34597" lon="7.15823">
        <ele>642</ele>
        <time>2022-08-04T23:21:20Z</time>
      </trkpt>
      <trkpt lat="48.34576" lon="7.15757">
        <ele>640</ele>
        <time>2022-08-04T23:22:25Z</time>
      </trkpt>
      <trkpt lat="48.34552" lon="7.15719">
        <ele>634</ele>
        <time>2022-08-04T23:23:11Z</time>
      </trkpt>
      <trkpt lat="48.34543" lon="7.15647">
        <ele>630</ele>
        <time>2022-08-04T23:24:16Z</time>
      </trkpt>
      <trkpt lat="48.34536" lon="7.15534">
        <ele>628</ele>
        <time>2022-08-04T23:25:57Z</time>
      </trkpt>
      <trkpt lat="48.34547" lon="7.15432">
        <ele>630</ele>
        <time>2022-08-04T23:27:28Z</time>
      </trkpt>
      <trkpt lat="48.34558" lon="7.1537">
        <ele>632</ele>
        <time>2022-08-04T23:28:25Z</time>
      </trkpt>
      <trkpt lat="48.34586" lon="7.15288">
        <ele>632</ele>
        <time>2022-08-04T23:29:47Z</time>
      </trkpt>
      <trkpt lat="48.34612" lon="7.15129">
        <ele>619</ele>
        <time>2022-08-04T23:32:12Z</time>
      </trkpt>
      <trkpt lat="48.34612" lon="7.14909">
        <ele>621</ele>
        <time>2022-08-04T23:35:27Z</time>
      </trkpt>
      <trkpt lat="48.3462" lon="7.14846">
        <ele>619</ele>
        <time>2022-08-04T23:36:24Z</time>
      </trkpt>
      <trkpt lat="48.34553" lon="7.145">
        <ele>629</ele>
        <time>2022-08-04T23:41:44Z</time>
      </trkpt>
      <trkpt lat="48.34525" lon="7.14428">
        <ele>617</ele>
        <time>2022-08-04T23:42:58Z</time>
      </trkpt>
      <trkpt lat="48.34532" lon="7.14377">
        <ele>618</ele>
        <time>2022-08-04T23:43:44Z</time>
      </trkpt>
      <trkpt lat="48.34545" lon="7.14329">
        <ele>621</ele>
        <time>2022-08-04T23:44:30Z</time>
      </trkpt>
      <trkpt lat="48.34557" lon="7.14271">
        <ele>623</ele>
        <time>2022-08-04T23:45:24Z</time>
      </trkpt>
      <trkpt lat="48.34555" lon="7.14219">
        <ele>622</ele>
        <time>2022-08-04T23:46:10Z</time>
      </trkpt>
      <trkpt lat="48.34543" lon="7.14114">
        <ele>619</ele>
        <time>2022-08-04T23:47:45Z</time>
      </trkpt>
      <trkpt lat="48.34542" lon="7.14062">
        <ele>617</ele>
        <time>2022-08-04T23:48:31Z</time>
      </trkpt>
      <trkpt lat="48.34527" lon="7.14019">
        <ele>611</ele>
        <time>2022-08-04T23:49:14Z</time>
      </trkpt>
      <trkpt lat="48.34522" lon="7.13983">
        <ele>607</ele>
        <time>2022-08-04T23:49:46Z</time>
      </trkpt>
      <trkpt lat="48.3454" lon="7.13941">
        <ele>604</ele>
        <time>2022-08-04T23:50:31Z</time>
      </trkpt>
      <trkpt lat="48.34547" lon="7.13892">
        <ele>597</ele>
        <time>2022-08-04T23:51:15Z</time>
      </trkpt>
      <trkpt lat="48.34556" lon="7.13874">
        <ele>595</ele>
        <time>2022-08-04T23:51:35Z</time>
      </trkpt>
      <trkpt lat="48.34589" lon="7.13871">
        <ele>598</ele>
        <time>2022-08-04T23:52:19Z</time>
      </trkpt>
      <trkpt lat="48.34643" lon="7.13882">
        <ele>592</ele>
        <time>2022-08-04T23:53:32Z</time>
      </trkpt>
      <trkpt lat="48.34719" lon="7.13963">
        <ele>589</ele>
        <time>2022-08-04T23:55:36Z</time>
      </trkpt>
      <trkpt lat="48.34755" lon="7.14022">
        <ele>589</ele>
        <time>2022-08-04T23:56:47Z</time>
      </trkpt>
      <trkpt lat="48.3477" lon="7.14035">
        <ele>590</ele>
        <time>2022-08-04T23:57:10Z</time>
      </trkpt>
      <trkpt lat="48.34787" lon="7.14029">
        <ele>588</ele>
        <time>2022-08-04T23:57:34Z</time>
      </trkpt>
      <trkpt lat="48.34848" lon="7.13919">
        <ele>579</ele>
        <time>2022-08-04T23:59:41Z</time>
      </trkpt>
      <trkpt lat="48.34842" lon="7.13893">
        <ele>578</ele>
        <time>2022-08-05T00:00:05Z</time>
      </trkpt>
      <trkpt lat="48.34851" lon="7.13836">
        <ele>576</ele>
        <time>2022-08-05T00:00:57Z</time>
      </trkpt>
      <trkpt lat="48.34824" lon="7.13642">
        <ele>570</ele>
        <time>2022-08-05T00:03:53Z</time>
      </trkpt>
      <trkpt lat="48.34832" lon="7.13592">
        <ele>564</ele>
        <time>2022-08-05T00:04:39Z</time>
      </trkpt>
      <trkpt lat="48.34921" lon="7.13519">
        <ele>560</ele>
        <time>2022-08-05T00:06:54Z</time>
      </trkpt>
      <trkpt lat="48.34936" lon="7.13495">
        <ele>557</ele>
        <time>2022-08-05T00:07:23Z</time>
      </trkpt>
      <trkpt lat="48.35033" lon="7.13414">
        <ele>555</ele>
        <time>2022-08-05T00:09:51Z</time>
      </trkpt>
      <trkpt lat="48.35076" lon="7.13384">
        <ele>549</ele>
        <time>2022-08-05T00:10:54Z</time>
      </trkpt>
      <trkpt lat="48.35094" lon="7.13345">
        <ele>540</ele>
        <time>2022-08-05T00:11:36Z</time>
      </trkpt>
      <trkpt lat="48.35095" lon="7.13303">
        <ele>532</ele>
        <time>2022-08-05T00:12:14Z</time>
      </trkpt>
      <trkpt lat="48.35113" lon="7.13249">
        <ele>519</ele>
        <time>2022-08-05T00:13:07Z</time>
      </trkpt>
      <trkpt lat="48.35148" lon="7.13212">
        <ele>511</ele>
        <time>2022-08-05T00:14:04Z</time>
      </trkpt>
      <trkpt lat="48.35024" lon="7.12952">
        <ele>513</ele>
        <time>2022-08-05T00:18:48Z</time>
      </trkpt>
      <trkpt lat="48.34966" lon="7.12938">
        <ele>514</ele>
        <time>2022-08-05T00:20:07Z</time>
      </trkpt>
      <trkpt lat="48.34961" lon="7.12837">
        <ele>517</ele>
        <time>2022-08-05T00:21:36Z</time>
      </trkpt>
      <trkpt lat="48.34937" lon="7.12779">
        <ele>521</ele>
        <time>2022-08-05T00:22:37Z</time>
      </trkpt>
      <trkpt lat="48.34906" lon="7.1272">
        <ele>524</ele>
        <time>2022-08-05T00:23:44Z</time>
      </trkpt>
      <trkpt lat="48.34898" lon="7.12665">
        <ele>526</ele>
        <time>2022-08-05T00:24:34Z</time>
      </trkpt>
      <trkpt lat="48.34899" lon="7.12601">
        <ele>530</ele>
        <time>2022-08-05T00:25:30Z</time>
      </trkpt>
      <trkpt lat="48.34904" lon="7.12569">
        <ele>532</ele>
        <time>2022-08-05T00:26:00Z</time>
      </trkpt>
      <trkpt lat="48.34907" lon="7.12494">
        <ele>536</ele>
        <time>2022-08-05T00:27:06Z</time>
      </trkpt>
      <trkpt lat="48.34923" lon="7.12418">
        <ele>541</ele>
        <time>2022-08-05T00:28:17Z</time>
      </trkpt>
      <trkpt lat="48.34938" lon="7.12365">
        <ele>543</ele>
        <time>2022-08-05T00:29:08Z</time>
      </trkpt>
      <trkpt lat="48.34935" lon="7.12235">
        <ele>548</ele>
        <time>2022-08-05T00:31:03Z</time>
      </trkpt>
      <trkpt lat="48.34919" lon="7.12115">
        <ele>549</ele>
        <time>2022-08-05T00:32:52Z</time>
      </trkpt>
      <trkpt lat="48.34901" lon="7.11948">
        <ele>548</ele>
        <time>2022-08-05T00:35:22Z</time>
      </trkpt>
      <trkpt lat="48.34882" lon="7.11846">
        <ele>545</ele>
        <time>2022-08-05T00:36:56Z</time>
      </trkpt>
      <trkpt lat="48.34875" lon="7.11779">
        <ele>544</ele>
        <time>2022-08-05T00:37:56Z</time>
      </trkpt>
      <trkpt lat="48.34895" lon="7.11512">
        <ele>545</ele>
        <time>2022-08-05T00:41:54Z</time>
      </trkpt>
      <trkpt lat="48.34894" lon="7.11418">
        <ele>547</ele>
        <time>2022-08-05T00:43:18Z</time>
      </trkpt>
      <trkpt lat="48.34875" lon="7.11179">
        <ele>548</ele>
        <time>2022-08-05T00:46:51Z</time>
      </trkpt>
      <trkpt lat="48.34921" lon="7.11193">
        <ele>548</ele>
        <time>2022-08-05T00:47:54Z</time>
      </trkpt>
      <trkpt lat="48.34896" lon="7.11087">
        <ele>549</ele>
        <time>2022-08-05T00:49:34Z</time>
      </trkpt>
      <trkpt lat="48.34873" lon="7.11003">
        <ele>551</ele>
        <time>2022-08-05T00:50:54Z</time>
      </trkpt>
      <trkpt lat="48.34857" lon="7.1093">
        <ele>554</ele>
        <time>2022-08-05T00:52:02Z</time>
      </trkpt>
      <trkpt lat="48.34847" lon="7.10821">
        <ele>556</ele>
        <time>2022-08-05T00:53:40Z</time>
      </trkpt>
      <trkpt lat="48.34841" lon="7.10714">
        <ele>557</ele>
        <time>2022-08-05T00:55:15Z</time>
      </trkpt>
      <trkpt lat="48.34843" lon="7.10682">
        <ele>558</ele>
        <time>2022-08-05T00:55:44Z</time>
      </trkpt>
      <trkpt lat="48.34855" lon="7.1066">
        <ele>558</ele>
        <time>2022-08-05T00:56:09Z</time>
      </trkpt>
      <trkpt lat="48.34875" lon="7.10595">
        <ele>559</ele>
        <time>2022-08-05T00:57:12Z</time>
      </trkpt>
      <trkpt lat="48.35" lon="7.10701">
        <ele>554</ele>
        <time>2022-08-05T01:00:24Z</time>
      </trkpt>
      <trkpt lat="48.35061" lon="7.10736">
        <ele>554</ele>
        <time>2022-08-05T01:01:51Z</time>
      </trkpt>
      <trkpt lat="48.35082" lon="7.10771">
        <ele>553</ele>
        <time>2022-08-05T01:02:33Z</time>
      </trkpt>
      <trkpt lat="48.35119" lon="7.1079">
        <ele>553</ele>
        <time>2022-08-05T01:03:25Z</time>
      </trkpt>
      <trkpt lat="48.35144" lon="7.10795">
        <ele>552</ele>
        <time>2022-08-05T01:03:59Z</time>
      </trkpt>
      <trkpt lat="48.35222" lon="7.10781">
        <ele>552</ele>
        <time>2022-08-05T01:05:43Z</time>
      </trkpt>
      <trkpt lat="48.353" lon="7.10751">
        <ele>553</ele>
        <time>2022-08-05T01:07:31Z</time>
      </trkpt>
      <trkpt lat="48.3533" lon="7.10753">
        <ele>553</ele>
        <time>2022-08-05T01:08:11Z</time>
      </trkpt>
      <trkpt lat="48.35445" lon="7.10816">
        <ele>553</ele>
        <time>2022-08-05T01:10:54Z</time>
      </trkpt>
      <trkpt lat="48.3548" lon="7.10821">
        <ele>552</ele>
        <time>2022-08-05T01:11:41Z</time>
      </trkpt>
      <trkpt lat="48.35512" lon="7.10868">
        <ele>550</ele>
        <time>2022-08-05T01:12:41Z</time>
      </trkpt>
      <trkpt lat="48.3554" lon="7.10891">
        <ele>551</ele>
        <time>2022-08-05T01:13:23Z</time>
      </trkpt>
      <trkpt lat="48.35569" lon="7.10898">
        <ele>552</ele>
        <time>2022-08-05T01:14:03Z</time>
      </trkpt>
      <trkpt lat="48.35612" lon="7.10882">
        <ele>555</ele>
        <time>2022-08-05T01:15:02Z</time>
      </trkpt>
      <trkpt lat="48.35663" lon="7.10887">
        <ele>559</ele>
        <time>2022-08-05T01:16:10Z</time>
      </trkpt>
      <trkpt lat="48.35717" lon="7.10879">
        <ele>563</ele>
        <time>2022-08-05T01:17:22Z</time>
      </trkpt>
      <trkpt lat="48.35751" lon="7.10916">
        <ele>565</ele>
        <time>2022-08-05T01:18:18Z</time>
      </trkpt>
      <trkpt lat="48.3579" lon="7.10938">
        <ele>568</ele>
        <time>2022-08-05T01:19:14Z</time>
      </trkpt>
      <trkpt lat="48.35844" lon="7.10957">
        <ele>573</ele>
        <time>2022-08-05T01:20:28Z</time>
      </trkpt>
      <trkpt lat="48.35935" lon="7.10944">
        <ele>580</ele>
        <time>2022-08-05T01:22:30Z</time>
      </trkpt>
      <trkpt lat="48.36016" lon="7.10943">
        <ele>586</ele>
        <time>2022-08-05T01:24:18Z</time>
      </trkpt>
      <trkpt lat="48.36063" lon="7.10937">
        <ele>589</ele>
        <time>2022-08-05T01:25:21Z</time>
      </trkpt>
      <trkpt lat="48.36102" lon="7.10927">
        <ele>594</ele>
        <time>2022-08-05T01:26:14Z</time>
      </trkpt>
      <trkpt lat="48.3614" lon="7.10889">
        <ele>601</ele>
        <time>2022-08-05T01:27:15Z</time>
      </trkpt>
      <trkpt lat="48.36174" lon="7.10886">
        <ele>608</ele>
        <time>2022-08-05T01:28:00Z</time>
      </trkpt>
      <trkpt lat="48.36199" lon="7.10953">
        <ele>615</ele>
        <time>2022-08-05T01:29:08Z</time>
      </trkpt>
      <trkpt lat="48.36197" lon="7.10986">
        <ele>616</ele>
        <time>2022-08-05T01:29:38Z</time>
      </trkpt>
      <trkpt lat="48.36166" lon="7.11083">
        <ele>624</ele>
        <time>2022-08-05T01:31:13Z</time>
      </trkpt>
      <trkpt lat="48.36134" lon="7.11199">
        <ele>639</ele>
        <time>2022-08-05T01:33:04Z</time>
      </trkpt>
      <trkpt lat="48.361" lon="7.11418">
        <ele>663</ele>
        <time>2022-08-05T01:36:24Z</time>
      </trkpt>
      <trkpt lat="48.36094" lon="7.1149">
        <ele>671</ele>
        <time>2022-08-05T01:37:28Z</time>
      </trkpt>
      <trkpt lat="48.36161" lon="7.11436">
        <ele>689</ele>
        <time>2022-08-05T01:39:10Z</time>
      </trkpt>
      <trkpt lat="48.36198" lon="7.11401">
        <ele>693</ele>
        <time>2022-08-05T01:40:08Z</time>
      </trkpt>
      <trkpt lat="48.36247" lon="7.11393">
        <ele>704</ele>
        <time>2022-08-05T01:41:14Z</time>
      </trkpt>
      <trkpt lat="48.36277" lon="7.11397">
        <ele>708</ele>
        <time>2022-08-05T01:41:54Z</time>
      </trkpt>
      <trkpt lat="48.36324" lon="7.1141">
        <ele>717</ele>
        <time>2022-08-05T01:42:58Z</time>
      </trkpt>
      <trkpt lat="48.36368" lon="7.11435">
        <ele>729</ele>
        <time>2022-08-05T01:44:00Z</time>
      </trkpt>
      <trkpt lat="48.36391" lon="7.11443">
        <ele>734</ele>
        <time>2022-08-05T01:44:32Z</time>
      </trkpt>
      <trkpt lat="48.36479" lon="7.11441">
        <ele>745</ele>
        <time>2022-08-05T01:46:29Z</time>
      </trkpt>
      <trkpt lat="48.36544" lon="7.11429">
        <ele>757</ele>
        <time>2022-08-05T01:47:57Z</time>
      </trkpt>
      <trkpt lat="48.36578" lon="7.11412">
        <ele>764</ele>
        <time>2022-08-05T01:48:45Z</time>
      </trkpt>
      <trkpt lat="48.36598" lon="7.11392">
        <ele>771</ele>
        <time>2022-08-05T01:49:17Z</time>
      </trkpt>
      <trkpt lat="48.36602" lon="7.11416">
        <ele>772</ele>
        <time>2022-08-05T01:49:39Z</time>
      </trkpt>
      <trkpt lat="48.36592" lon="7.11475">
        <ele>778</ele>
        <time>2022-08-05T01:50:32Z</time>
      </trkpt>
      <trkpt lat="48.36576" lon="7.11544">
        <ele>785</ele>
        <time>2022-08-05T01:51:37Z</time>
      </trkpt>
      <trkpt lat="48.36616" lon="7.11547">
        <ele>791</ele>
        <time>2022-08-05T01:52:31Z</time>
      </trkpt>
      <trkpt lat="48.36664" lon="7.11537">
        <ele>796</ele>
        <time>2022-08-05T01:53:35Z</time>
      </trkpt>
      <trkpt lat="48.36691" lon="7.11539">
        <ele>801</ele>
        <time>2022-08-05T01:54:11Z</time>
      </trkpt>
      <trkpt lat="48.3672" lon="7.11545">
        <ele>806</ele>
        <time>2022-08-05T01:54:51Z</time>
      </trkpt>
      <trkpt lat="48.36751" lon="7.1159">
        <ele>810</ele>
        <time>2022-08-05T01:55:48Z</time>
      </trkpt>
      <trkpt lat="48.36765" lon="7.11504">
        <ele>810</ele>
        <time>2022-08-05T01:57:06Z</time>
      </trkpt>
      <trkpt lat="48.36777" lon="7.11476">
        <ele>811</ele>
        <time>2022-08-05T01:57:36Z</time>
      </trkpt>
      <trkpt lat="48.36779" lon="7.11425">
        <ele>817</ele>
        <time>2022-08-05T01:58:21Z</time>
      </trkpt>
      <trkpt lat="48.36788" lon="7.11376">
        <ele>822</ele>
        <time>2022-08-05T01:59:06Z</time>
      </trkpt>
      <trkpt lat="48.36784" lon="7.11341">
        <ele>826</ele>
        <time>2022-08-05T01:59:38Z</time>
      </trkpt>
      <trkpt lat="48.36772" lon="7.11329">
        <ele>827</ele>
        <time>2022-08-05T01:59:57Z</time>
      </trkpt>
      <trkpt lat="48.36809" lon="7.1129">
        <ele>828</ele>
        <time>2022-08-05T02:00:57Z</time>
      </trkpt>
      <trkpt lat="48.36838" lon="7.11269">
        <ele>828</ele>
        <time>2022-08-05T02:01:40Z</time>
      </trkpt>
      <trkpt lat="48.36883" lon="7.1126">
        <ele>825</ele>
        <time>2022-08-05T02:02:41Z</time>
      </trkpt>
      <trkpt lat="48.36926" lon="7.11255">
        <ele>822</ele>
        <time>2022-08-05T02:03:38Z</time>
      </trkpt>
      <trkpt lat="48.36978" lon="7.11225">
        <ele>813</ele>
        <time>2022-08-05T02:04:53Z</time>
      </trkpt>
      <trkpt lat="48.37004" lon="7.11221">
        <ele>807</ele>
        <time>2022-08-05T02:05:28Z</time>
      </trkpt>
      <trkpt lat="48.37041" lon="7.11186">
        <ele>799</ele>
        <time>2022-08-05T02:06:26Z</time>
      </trkpt>
      <trkpt lat="48.37069" lon="7.11171">
        <ele>792</ele>
        <time>2022-08-05T02:07:06Z</time>
      </trkpt>
      <trkpt lat="48.37088" lon="7.11143">
        <ele>786</ele>
        <time>2022-08-05T02:07:41Z</time>
      </trkpt>
      <trkpt lat="48.37119" lon="7.11109">
        <ele>775</ele>
        <time>2022-08-05T02:08:32Z</time>
      </trkpt>
      <trkpt lat="48.3713" lon="7.11066">
        <ele>771</ele>
        <time>2022-08-05T02:09:13Z</time>
      </trkpt>
      <trkpt lat="48.37141" lon="7.11005">
        <ele>765</ele>
        <time>2022-08-05T02:10:09Z</time>
      </trkpt>
      <trkpt lat="48.3716" lon="7.10962">
        <ele>758</ele>
        <time>2022-08-05T02:10:55Z</time>
      </trkpt>
      <trkpt lat="48.37161" lon="7.10922">
        <ele>756</ele>
        <time>2022-08-05T02:11:30Z</time>
      </trkpt>
      <trkpt lat="48.37167" lon="7.109">
        <ele>756</ele>
        <time>2022-08-05T02:11:52Z</time>
      </trkpt>
      <trkpt lat="48.3718" lon="7.10868">
        <ele>757</ele>
        <time>2022-08-05T02:12:25Z</time>
      </trkpt>
      <trkpt lat="48.37209" lon="7.1083">
        <ele>756</ele>
        <time>2022-08-05T02:13:16Z</time>
      </trkpt>
      <trkpt lat="48.3729" lon="7.10705">
        <ele>754</ele>
        <time>2022-08-05T02:15:51Z</time>
      </trkpt>
      <trkpt lat="48.3733" lon="7.10304">
        <ele>766</ele>
        <time>2022-08-05T02:21:50Z</time>
      </trkpt>
      <trkpt lat="48.37367" lon="7.10183">
        <ele>768</ele>
        <time>2022-08-05T02:23:48Z</time>
      </trkpt>
      <trkpt lat="48.37342" lon="7.10001">
        <ele>772</ele>
        <time>2022-08-05T02:26:33Z</time>
      </trkpt>
      <trkpt lat="48.37306" lon="7.09916">
        <ele>775</ele>
        <time>2022-08-05T02:28:03Z</time>
      </trkpt>
      <trkpt lat="48.37391" lon="7.09808">
        <ele>771</ele>
        <time>2022-08-05T02:30:31Z</time>
      </trkpt>
      <trkpt lat="48.37431" lon="7.09656">
        <ele>776</ele>
        <time>2022-08-05T02:32:56Z</time>
      </trkpt>
      <trkpt lat="48.37463" lon="7.09553">
        <ele>780</ele>
        <time>2022-08-05T02:34:37Z</time>
      </trkpt>
      <trkpt lat="48.37613" lon="7.09529">
        <ele>784</ele>
        <time>2022-08-05T02:37:58Z</time>
      </trkpt>
      <trkpt lat="48.37693" lon="7.09559">
        <ele>780</ele>
        <time>2022-08-05T02:39:48Z</time>
      </trkpt>
      <trkpt lat="48.3781" lon="7.09596">
        <ele>775</ele>
        <time>2022-08-05T02:42:28Z</time>
      </trkpt>
      <trkpt lat="48.37959" lon="7.09674">
        <ele>773</ele>
        <time>2022-08-05T02:45:58Z</time>
      </trkpt>
      <trkpt lat="48.38056" lon="7.09753">
        <ele>771</ele>
        <time>2022-08-05T02:48:25Z</time>
      </trkpt>
      <trkpt lat="48.38125" lon="7.09793">
        <ele>775</ele>
        <time>2022-08-05T02:50:04Z</time>
      </trkpt>
      <trkpt lat="48.38331" lon="7.09629">
        <ele>776</ele>
        <time>2022-08-05T02:55:15Z</time>
      </trkpt>
      <trkpt lat="48.38424" lon="7.09568">
        <ele>775</ele>
        <time>2022-08-05T02:57:30Z</time>
      </trkpt>
      <trkpt lat="48.38569" lon="7.09459">
        <ele>761</ele>
        <time>2022-08-05T03:01:06Z</time>
      </trkpt>
      <trkpt lat="48.38694" lon="7.09558">
        <ele>749</ele>
        <time>2022-08-05T03:04:15Z</time>
      </trkpt>
      <trkpt lat="48.38733" lon="7.09595">
        <ele>744</ele>
        <time>2022-08-05T03:05:16Z</time>
      </trkpt>
      <trkpt lat="48.3877" lon="7.09623">
        <ele>737</ele>
        <time>2022-08-05T03:06:12Z</time>
      </trkpt>
      <trkpt lat="48.38806" lon="7.09635">
        <ele>731</ele>
        <time>2022-08-05T03:07:01Z</time>
      </trkpt>
      <trkpt lat="48.38834" lon="7.09615">
        <ele>726</ele>
        <time>2022-08-05T03:07:42Z</time>
      </trkpt>
      <trkpt lat="48.38845" lon="7.09577">
        <ele>724</ele>
        <time>2022-08-05T03:08:19Z</time>
      </trkpt>
      <trkpt lat="48.38864" lon="7.09457">
        <ele>722</ele>
        <time>2022-08-05T03:10:08Z</time>
      </trkpt>
      <trkpt lat="48.38889" lon="7.09376">
        <ele>719</ele>
        <time>2022-08-05T03:11:27Z</time>
      </trkpt>
      <trkpt lat="48.38915" lon="7.09338">
        <ele>715</ele>
        <time>2022-08-05T03:12:16Z</time>
      </trkpt>
      <trkpt lat="48.38935" lon="7.09254">
        <ele>715</ele>
        <time>2022-08-05T03:13:35Z</time>
      </trkpt>
      <trkpt lat="48.38961" lon="7.09219">
        <ele>714</ele>
        <time>2022-08-05T03:14:21Z</time>
      </trkpt>
      <trkpt lat="48.39017" lon="7.09178">
        <ele>711</ele>
        <time>2022-08-05T03:15:45Z</time>
      </trkpt>
      <trkpt lat="48.39116" lon="7.09083">
        <ele>709</ele>
        <time>2022-08-05T03:18:21Z</time>
      </trkpt>
      <trkpt lat="48.39212" lon="7.0901">
        <ele>704</ele>
        <time>2022-08-05T03:20:45Z</time>
      </trkpt>
      <trkpt lat="48.39293" lon="7.09107">
        <ele>705</ele>
        <time>2022-08-05T03:23:03Z</time>
      </trkpt>
      <trkpt lat="48.3943" lon="7.09307">
        <ele>696</ele>
        <time>2022-08-05T03:27:17Z</time>
      </trkpt>
      <trkpt lat="48.39611" lon="7.09459">
        <ele>687</ele>
        <time>2022-08-05T03:31:54Z</time>
      </trkpt>
      <trkpt lat="48.39732" lon="7.0952">
        <ele>674</ele>
        <time>2022-08-05T03:34:44Z</time>
      </trkpt>
      <trkpt lat="48.39765" lon="7.09587">
        <ele>664</ele>
        <time>2022-08-05T03:35:58Z</time>
      </trkpt>
      <trkpt lat="48.39769" lon="7.0972">
        <ele>662</ele>
        <time>2022-08-05T03:37:56Z</time>
      </trkpt>
      <trkpt lat="48.39837" lon="7.09647">
        <ele>651</ele>
        <time>2022-08-05T03:39:48Z</time>
      </trkpt>
      <trkpt lat="48.39873" lon="7.09429">
        <ele>656</ele>
        <time>2022-08-05T03:43:07Z</time>
      </trkpt>
      <trkpt lat="48.39926" lon="7.09338">
        <ele>656</ele>
        <time>2022-08-05T03:44:54Z</time>
      </trkpt>
      <trkpt lat="48.40022" lon="7.09235">
        <ele>648</ele>
        <time>2022-08-05T03:47:31Z</time>
      </trkpt>
      <trkpt lat="48.40059" lon="7.09095">
        <ele>654</ele>
        <time>2022-08-05T03:49:45Z</time>
      </trkpt>
      <trkpt lat="48.40107" lon="7.08955">
        <ele>664</ele>
        <time>2022-08-05T03:52:04Z</time>
      </trkpt>
      <trkpt lat="48.40239" lon="7.08985">
        <ele>642</ele>
        <time>2022-08-05T03:55:02Z</time>
      </trkpt>
      <trkpt lat="48.403" lon="7.09015">
        <ele>649</ele>
        <time>2022-08-05T03:56:28Z</time>
      </trkpt>
      <trkpt lat="48.40368" lon="7.09003">
        <ele>666</ele>
        <time>2022-08-05T03:57:59Z</time>
      </trkpt>
      <trkpt lat="48.40429" lon="7.08912">
        <ele>679</ele>
        <time>2022-08-05T03:59:54Z</time>
      </trkpt>
      <trkpt lat="48.4044" lon="7.09022">
        <ele>692</ele>
        <time>2022-08-05T04:01:33Z</time>
      </trkpt>
      <trkpt lat="48.40463" lon="7.09123">
        <ele>705</ele>
        <time>2022-08-05T04:03:07Z</time>
      </trkpt>
      <trkpt lat="48.40502" lon="7.09246">
        <ele>718</ele>
        <time>2022-08-05T04:05:08Z</time>
      </trkpt>
      <trkpt lat="48.40578" lon="7.09333">
        <ele>737</ele>
        <time>2022-08-05T04:07:15Z</time>
      </trkpt>
      <trkpt lat="48.40679" lon="7.09412">
        <ele>764</ele>
        <time>2022-08-05T04:09:47Z</time>
      </trkpt>
      <trkpt lat="48.40784" lon="7.09499">
        <ele>780</ele>
        <time>2022-08-05T04:12:27Z</time>
      </trkpt>
      <trkpt lat="48.40895" lon="7.09527">
        <ele>805</ele>
        <time>2022-08-05T04:14:57Z</time>
      </trkpt>
      <trkpt lat="48.40971" lon="7.09607">
        <ele>809</ele>
        <time>2022-08-05T04:17:01Z</time>
      </trkpt>
      <trkpt lat="48.41115" lon="7.09672">
        <ele>833</ele>
        <time>2022-08-05T04:20:22Z</time>
      </trkpt>
      <trkpt lat="48.41201" lon="7.09722">
        <ele>837</ele>
        <time>2022-08-05T04:22:25Z</time>
      </trkpt>
      <trkpt lat="48.41283" lon="7.09744">
        <ele>839</ele>
        <time>2022-08-05T04:24:16Z</time>
      </trkpt>
      <trkpt lat="48.41364" lon="7.09751">
        <ele>836</ele>
        <time>2022-08-05T04:26:04Z</time>
      </trkpt>
      <trkpt lat="48.41403" lon="7.09665">
        <ele>844</ele>
        <time>2022-08-05T04:27:36Z</time>
      </trkpt>
      <trkpt lat="48.41417" lon="7.09578">
        <ele>841</ele>
        <time>2022-08-05T04:28:56Z</time>
      </trkpt>
      <trkpt lat="48.41556" lon="7.09617">
        <ele>832</ele>
        <time>2022-08-05T04:32:04Z</time>
      </trkpt>
      <trkpt lat="48.41661" lon="7.0966">
        <ele>837</ele>
        <time>2022-08-05T04:34:29Z</time>
      </trkpt>
      <trkpt lat="48.41853" lon="7.0966">
        <ele>839</ele>
        <time>2022-08-05T04:38:46Z</time>
      </trkpt>
      <trkpt lat="48.41977" lon="7.09667">
        <ele>842</ele>
        <time>2022-08-05T04:41:31Z</time>
      </trkpt>
      <trkpt lat="48.42121" lon="7.09646">
        <ele>841</ele>
        <time>2022-08-05T04:44:44Z</time>
      </trkpt>
      <trkpt lat="48.42274" lon="7.09675">
        <ele>841</ele>
        <time>2022-08-05T04:48:10Z</time>
      </trkpt>
      <trkpt lat="48.42399" lon="7.09595">
        <ele>834</ele>
        <time>2022-08-05T04:51:11Z</time>
      </trkpt>
      <trkpt lat="48.42547" lon="7.09494">
        <ele>838</ele>
        <time>2022-08-05T04:54:48Z</time>
      </trkpt>
      <trkpt lat="48.42766" lon="7.09388">
        <ele>844</ele>
        <time>2022-08-05T04:59:55Z</time>
      </trkpt>
      <trkpt lat="48.42824" lon="7.0946">
        <ele>843</ele>
        <time>2022-08-05T05:01:35Z</time>
      </trkpt>
      <trkpt lat="48.42963" lon="7.09575">
        <ele>834</ele>
        <time>2022-08-05T05:05:07Z</time>
      </trkpt>
      <trkpt lat="48.43054" lon="7.09481">
        <ele>824</ele>
        <time>2022-08-05T05:07:34Z</time>
      </trkpt>
      <trkpt lat="48.43154" lon="7.09438">
        <ele>823</ele>
        <time>2022-08-05T05:09:53Z</time>
      </trkpt>
      <trkpt lat="48.43269" lon="7.09467">
        <ele>813</ele>
        <time>2022-08-05T05:12:29Z</time>
      </trkpt>
      <trkpt lat="48.43389" lon="7.0972">
        <ele>829</ele>
        <time>2022-08-05T05:17:04Z</time>
      </trkpt>
      <trkpt lat="48.4358" lon="7.10023">
        <ele>831</ele>
        <time>2022-08-05T05:23:14Z</time>
      </trkpt>
      <trkpt lat="48.43633" lon="7.10167">
        <ele>831</ele>
        <time>2022-08-05T05:25:40Z</time>
      </trkpt>
      <trkpt lat="48.43686" lon="7.10241">
        <ele>830</ele>
        <time>2022-08-05T05:27:16Z</time>
      </trkpt>
      <trkpt lat="48.43788" lon="7.1034">
        <ele>828</ele>
        <time>2022-08-05T05:29:58Z</time>
      </trkpt>
      <trkpt lat="48.43831" lon="7.10417">
        <ele>834</ele>
        <time>2022-08-05T05:31:27Z</time>
      </trkpt>
      <trkpt lat="48.43919" lon="7.10473">
        <ele>843</ele>
        <time>2022-08-05T05:33:35Z</time>
      </trkpt>
      <trkpt lat="48.43999" lon="7.10546">
        <ele>855</ele>
        <time>2022-08-05T05:35:39Z</time>
      </trkpt>
      <trkpt lat="48.44076" lon="7.10623">
        <ele>862</ele>
        <time>2022-08-05T05:37:43Z</time>
      </trkpt>
      <trkpt lat="48.44161" lon="7.10563">
        <ele>871</ele>
        <time>2022-08-05T05:39:48Z</time>
      </trkpt>
      <trkpt lat="48.44237" lon="7.10624">
        <ele>880</ele>
        <time>2022-08-05T05:41:43Z</time>
      </trkpt>
      <trkpt lat="48.44297" lon="7.10645">
        <ele>886</ele>
        <time>2022-08-05T05:43:05Z</time>
      </trkpt>
      <trkpt lat="48.44371" lon="7.10658">
        <ele>889</ele>
        <time>2022-08-05T05:44:44Z</time>
      </trkpt>
      <trkpt lat="48.44402" lon="7.1062">
        <ele>893</ele>
        <time>2022-08-05T05:45:38Z</time>
      </trkpt>
      <trkpt lat="48.44351" lon="7.10598">
        <ele>895</ele>
        <time>2022-08-05T05:46:49Z</time>
      </trkpt>
      <trkpt lat="48.44291" lon="7.10508">
        <ele>902</ele>
        <time>2022-08-05T05:48:42Z</time>
      </trkpt>
      <trkpt lat="48.44288" lon="7.10457">
        <ele>905</ele>
        <time>2022-08-05T05:49:27Z</time>
      </trkpt>
      <trkpt lat="48.44302" lon="7.10401">
        <ele>910</ele>
        <time>2022-08-05T05:50:20Z</time>
      </trkpt>
      <trkpt lat="48.44331" lon="7.10298">
        <ele>920</ele>
        <time>2022-08-05T05:51:59Z</time>
      </trkpt>
      <trkpt lat="48.44359" lon="7.10259">
        <ele>921</ele>
        <time>2022-08-05T05:52:50Z</time>
      </trkpt>
      <trkpt lat="48.44329" lon="7.10338">
        <ele>919</ele>
        <time>2022-08-05T05:54:10Z</time>
      </trkpt>
      <trkpt lat="48.44301" lon="7.10425">
        <ele>909</ele>
        <time>2022-08-05T05:55:36Z</time>
      </trkpt>
      <trkpt lat="48.44296" lon="7.10511">
        <ele>902</ele>
        <time>2022-08-05T05:56:52Z</time>
      </trkpt>
      <trkpt lat="48.44401" lon="7.10598">
        <ele>895</ele>
        <time>2022-08-05T05:59:32Z</time>
      </trkpt>
      <trkpt lat="48.44387" lon="7.10641">
        <ele>891</ele>
        <time>2022-08-05T06:00:15Z</time>
      </trkpt>
      <trkpt lat="48.44344" lon="7.10656">
        <ele>889</ele>
        <time>2022-08-05T06:01:14Z</time>
      </trkpt>
      <trkpt lat="48.442" lon="7.10583">
        <ele>876</ele>
        <time>2022-08-05T06:04:36Z</time>
      </trkpt>
      <trkpt lat="48.44138" lon="7.10576">
        <ele>868</ele>
        <time>2022-08-05T06:05:59Z</time>
      </trkpt>
      <trkpt lat="48.44085" lon="7.10605">
        <ele>862</ele>
        <time>2022-08-05T06:07:14Z</time>
      </trkpt>
      <trkpt lat="48.44057" lon="7.10641">
        <ele>861</ele>
        <time>2022-08-05T06:08:04Z</time>
      </trkpt>
      <trkpt lat="48.44023" lon="7.10706">
        <ele>861</ele>
        <time>2022-08-05T06:09:17Z</time>
      </trkpt>
      <trkpt lat="48.43994" lon="7.10735">
        <ele>862</ele>
        <time>2022-08-05T06:10:03Z</time>
      </trkpt>
      <trkpt lat="48.43975" lon="7.1085">
        <ele>863</ele>
        <time>2022-08-05T06:11:48Z</time>
      </trkpt>
      <trkpt lat="48.43966" lon="7.10988">
        <ele>866</ele>
        <time>2022-08-05T06:13:51Z</time>
      </trkpt>
      <trkpt lat="48.43961" lon="7.11154">
        <ele>867</ele>
        <time>2022-08-05T06:16:18Z</time>
      </trkpt>
      <trkpt lat="48.43983" lon="7.11215">
        <ele>866</ele>
        <time>2022-08-05T06:17:20Z</time>
      </trkpt>
      <trkpt lat="48.43971" lon="7.11312">
        <ele>862</ele>
        <time>2022-08-05T06:18:47Z</time>
      </trkpt>
      <trkpt lat="48.43939" lon="7.11355">
        <ele>862</ele>
        <time>2022-08-05T06:19:44Z</time>
      </trkpt>
      <trkpt lat="48.43915" lon="7.11397">
        <ele>863</ele>
        <time>2022-08-05T06:20:33Z</time>
      </trkpt>
      <trkpt lat="48.43866" lon="7.11446">
        <ele>860</ele>
        <time>2022-08-05T06:21:52Z</time>
      </trkpt>
      <trkpt lat="48.43826" lon="7.11494">
        <ele>859</ele>
        <time>2022-08-05T06:23:00Z</time>
      </trkpt>
      <trkpt lat="48.43822" lon="7.11622">
        <ele>855</ele>
        <time>2022-08-05T06:24:53Z</time>
      </trkpt>
      <trkpt lat="48.43862" lon="7.11701">
        <ele>857</ele>
        <time>2022-08-05T06:26:21Z</time>
      </trkpt>
      <trkpt lat="48.43878" lon="7.11761">
        <ele>857</ele>
        <time>2022-08-05T06:27:19Z</time>
      </trkpt>
      <trkpt lat="48.43882" lon="7.11834">
        <ele>853</ele>
        <time>2022-08-05T06:28:23Z</time>
      </trkpt>
      <trkpt lat="48.43834" lon="7.11998">
        <ele>842</ele>
        <time>2022-08-05T06:31:02Z</time>
      </trkpt>
      <trkpt lat="48.43799" lon="7.1215">
        <ele>827</ele>
        <time>2022-08-05T06:33:25Z</time>
      </trkpt>
      <trkpt lat="48.4381" lon="7.12271">
        <ele>823</ele>
        <time>2022-08-05T06:35:13Z</time>
      </trkpt>
      <trkpt lat="48.4381" lon="7.12314">
        <ele>817</ele>
        <time>2022-08-05T06:35:51Z</time>
      </trkpt>
      <trkpt lat="48.43832" lon="7.12369">
        <ele>813</ele>
        <time>2022-08-05T06:36:48Z</time>
      </trkpt>
      <trkpt lat="48.4386" lon="7.12402">
        <ele>814</ele>
        <time>2022-08-05T06:37:35Z</time>
      </trkpt>
      <trkpt lat="48.43889" lon="7.12405">
        <ele>823</ele>
        <time>2022-08-05T06:38:14Z</time>
      </trkpt>
      <trkpt lat="48.43914" lon="7.12416">
        <ele>828</ele>
        <time>2022-08-05T06:38:49Z</time>
      </trkpt>
      <trkpt lat="48.43935" lon="7.12432">
        <ele>833</ele>
        <time>2022-08-05T06:39:20Z</time>
      </trkpt>
      <trkpt lat="48.43949" lon="7.12471">
        <ele>831</ele>
        <time>2022-08-05T06:39:59Z</time>
      </trkpt>
      <trkpt lat="48.43967" lon="7.12502">
        <ele>834</ele>
        <time>2022-08-05T06:40:36Z</time>
      </trkpt>
      <trkpt lat="48.43988" lon="7.12576">
        <ele>840</ele>
        <time>2022-08-05T06:41:47Z</time>
      </trkpt>
      <trkpt lat="48.43996" lon="7.12635">
        <ele>845</ele>
        <time>2022-08-05T06:42:40Z</time>
      </trkpt>
      <trkpt lat="48.44007" lon="7.1267">
        <ele>850</ele>
        <time>2022-08-05T06:43:15Z</time>
      </trkpt>
      <trkpt lat="48.44008" lon="7.12719">
        <ele>854</ele>
        <time>2022-08-05T06:43:58Z</time>
      </trkpt>
      <trkpt lat="48.44064" lon="7.12915">
        <ele>880</ele>
        <time>2022-08-05T06:47:07Z</time>
      </trkpt>
      <trkpt lat="48.44068" lon="7.12973">
        <ele>882</ele>
        <time>2022-08-05T06:47:59Z</time>
      </trkpt>
      <trkpt lat="48.44062" lon="7.13012">
        <ele>880</ele>
        <time>2022-08-05T06:48:34Z</time>
      </trkpt>
      <trkpt lat="48.44071" lon="7.13065">
        <ele>882</ele>
        <time>2022-08-05T06:49:22Z</time>
      </trkpt>
      <trkpt lat="48.44071" lon="7.13103">
        <ele>882</ele>
        <time>2022-08-05T06:49:56Z</time>
      </trkpt>
      <trkpt lat="48.44077" lon="7.13159">
        <ele>884</ele>
        <time>2022-08-05T06:50:46Z</time>
      </trkpt>
      <trkpt lat="48.44108" lon="7.13194">
        <ele>883</ele>
        <time>2022-08-05T06:51:38Z</time>
      </trkpt>
      <trkpt lat="48.44122" lon="7.13185">
        <ele>885</ele>
        <time>2022-08-05T06:51:58Z</time>
      </trkpt>
      <trkpt lat="48.44141" lon="7.13125">
        <ele>892</ele>
        <time>2022-08-05T06:52:57Z</time>
      </trkpt>
      <trkpt lat="48.44158" lon="7.13115">
        <ele>894</ele>
        <time>2022-08-05T06:53:21Z</time>
      </trkpt>
      <trkpt lat="48.44166" lon="7.13093">
        <ele>897</ele>
        <time>2022-08-05T06:53:44Z</time>
      </trkpt>
      <trkpt lat="48.44184" lon="7.13101">
        <ele>892</ele>
        <time>2022-08-05T06:54:09Z</time>
      </trkpt>
      <trkpt lat="48.44196" lon="7.13127">
        <ele>887</ele>
        <time>2022-08-05T06:54:37Z</time>
      </trkpt>
      <trkpt lat="48.44217" lon="7.13118">
        <ele>883</ele>
        <time>2022-08-05T06:55:06Z</time>
      </trkpt>
      <trkpt lat="48.44227" lon="7.13161">
        <ele>876</ele>
        <time>2022-08-05T06:55:46Z</time>
      </trkpt>
      <trkpt lat="48.44256" lon="7.13137">
        <ele>871</ele>
        <time>2022-08-05T06:56:30Z</time>
      </trkpt>
      <trkpt lat="48.44267" lon="7.13176">
        <ele>862</ele>
        <time>2022-08-05T06:57:08Z</time>
      </trkpt>
      <trkpt lat="48.44309" lon="7.13189">
        <ele>847</ele>
        <time>2022-08-05T06:58:05Z</time>
      </trkpt>
      <trkpt lat="48.44342" lon="7.13189">
        <ele>839</ele>
        <time>2022-08-05T06:58:49Z</time>
      </trkpt>
      <trkpt lat="48.44363" lon="7.13218">
        <ele>836</ele>
        <time>2022-08-05T06:59:27Z</time>
      </trkpt>
      <trkpt lat="48.44395" lon="7.13251">
        <ele>835</ele>
        <time>2022-08-05T07:00:19Z</time>
      </trkpt>
      <trkpt lat="48.44404" lon="7.13291">
        <ele>831</ele>
        <time>2022-08-05T07:00:56Z</time>
      </trkpt>
      <trkpt lat="48.44431" lon="7.13318">
        <ele>831</ele>
        <time>2022-08-05T07:01:40Z</time>
      </trkpt>
      <trkpt lat="48.44467" lon="7.1334">
        <ele>831</ele>
        <time>2022-08-05T07:02:31Z</time>
      </trkpt>
      <trkpt lat="48.44486" lon="7.13431">
        <ele>831</ele>
        <time>2022-08-05T07:03:56Z</time>
      </trkpt>
      <trkpt lat="48.44507" lon="7.13442">
        <ele>835</ele>
        <time>2022-08-05T07:04:25Z</time>
      </trkpt>
      <trkpt lat="48.44528" lon="7.13522">
        <ele>836</ele>
        <time>2022-08-05T07:05:42Z</time>
      </trkpt>
      <trkpt lat="48.44545" lon="7.13609">
        <ele>835</ele>
        <time>2022-08-05T07:07:02Z</time>
      </trkpt>
      <trkpt lat="48.44575" lon="7.13677">
        <ele>839</ele>
        <time>2022-08-05T07:08:14Z</time>
      </trkpt>
      <trkpt lat="48.446" lon="7.13701">
        <ele>840</ele>
        <time>2022-08-05T07:08:54Z</time>
      </trkpt>
      <trkpt lat="48.44634" lon="7.13755">
        <ele>840</ele>
        <time>2022-08-05T07:10:00Z</time>
      </trkpt>
      <trkpt lat="48.44658" lon="7.13831">
        <ele>840</ele>
        <time>2022-08-05T07:11:14Z</time>
      </trkpt>
      <trkpt lat="48.44675" lon="7.13905">
        <ele>840</ele>
        <time>2022-08-05T07:12:23Z</time>
      </trkpt>
      <trkpt lat="48.44685" lon="7.13971">
        <ele>838</ele>
        <time>2022-08-05T07:13:23Z</time>
      </trkpt>
      <trkpt lat="48.44681" lon="7.14086">
        <ele>834</ele>
        <time>2022-08-05T07:15:05Z</time>
      </trkpt>
      <trkpt lat="48.44746" lon="7.1405">
        <ele>831</ele>
        <time>2022-08-05T07:16:38Z</time>
      </trkpt>
      <trkpt lat="48.44837" lon="7.13902">
        <ele>821</ele>
        <time>2022-08-05T07:19:36Z</time>
      </trkpt>
      <trkpt lat="48.4488" lon="7.13838">
        <ele>816</ele>
        <time>2022-08-05T07:20:57Z</time>
      </trkpt>
      <trkpt lat="48.44969" lon="7.13772">
        <ele>811</ele>
        <time>2022-08-05T07:23:09Z</time>
      </trkpt>
      <trkpt lat="48.45053" lon="7.13759">
        <ele>805</ele>
        <time>2022-08-05T07:25:02Z</time>
      </trkpt>
      <trkpt lat="48.45111" lon="7.13783">
        <ele>800</ele>
        <time>2022-08-05T07:26:22Z</time>
      </trkpt>
      <trkpt lat="48.45178" lon="7.13848">
        <ele>799</ele>
        <time>2022-08-05T07:28:09Z</time>
      </trkpt>
      <trkpt lat="48.45226" lon="7.13902">
        <ele>798</ele>
        <time>2022-08-05T07:29:29Z</time>
      </trkpt>
      <trkpt lat="48.45303" lon="7.13966">
        <ele>792</ele>
        <time>2022-08-05T07:31:26Z</time>
      </trkpt>
      <trkpt lat="48.45286" lon="7.13983">
        <ele>797</ele>
        <time>2022-08-05T07:31:53Z</time>
      </trkpt>
      <trkpt lat="48.4529" lon="7.14017">
        <ele>796</ele>
        <time>2022-08-05T07:32:24Z</time>
      </trkpt>
      <trkpt lat="48.45322" lon="7.14046">
        <ele>794</ele>
        <time>2022-08-05T07:33:14Z</time>
      </trkpt>
      <trkpt lat="48.45353" lon="7.14114">
        <ele>781</ele>
        <time>2022-08-05T07:34:27Z</time>
      </trkpt>
      <trkpt lat="48.45373" lon="7.14137">
        <ele>771</ele>
        <time>2022-08-05T07:35:00Z</time>
      </trkpt>
      <trkpt lat="48.45387" lon="7.1413">
        <ele>768</ele>
        <time>2022-08-05T07:35:20Z</time>
      </trkpt>
      <trkpt lat="48.45392" lon="7.14175">
        <ele>758</ele>
        <time>2022-08-05T07:36:00Z</time>
      </trkpt>
      <trkpt lat="48.45423" lon="7.14154">
        <ele>753</ele>
        <time>2022-08-05T07:36:46Z</time>
      </trkpt>
      <trkpt lat="48.4541" lon="7.14201">
        <ele>749</ele>
        <time>2022-08-05T07:37:31Z</time>
      </trkpt>
      <trkpt lat="48.45391" lon="7.14234">
        <ele>744</ele>
        <time>2022-08-05T07:38:09Z</time>
      </trkpt>
      <trkpt lat="48.45372" lon="7.14254">
        <ele>742</ele>
        <time>2022-08-05T07:38:40Z</time>
      </trkpt>
      <trkpt lat="48.45355" lon="7.14283">
        <ele>737</ele>
        <time>2022-08-05T07:39:14Z</time>
      </trkpt>
      <trkpt lat="48.45322" lon="7.14289">
        <ele>736</ele>
        <time>2022-08-05T07:39:59Z</time>
      </trkpt>
      <trkpt lat="48.4531" lon="7.14281">
        <ele>736</ele>
        <time>2022-08-05T07:40:16Z</time>
      </trkpt>
      <trkpt lat="48.45278" lon="7.14295">
        <ele>728</ele>
        <time>2022-08-05T07:41:01Z</time>
      </trkpt>
      <trkpt lat="48.45334" lon="7.14417">
        <ele>706</ele>
        <time>2022-08-05T07:43:12Z</time>
      </trkpt>
      <trkpt lat="48.45314" lon="7.14441">
        <ele>697</ele>
        <time>2022-08-05T07:43:46Z</time>
      </trkpt>
      <trkpt lat="48.45403" lon="7.14617">
        <ele>674</ele>
        <time>2022-08-05T07:47:02Z</time>
      </trkpt>
      <trkpt lat="48.45391" lon="7.14635">
        <ele>669</ele>
        <time>2022-08-05T07:47:25Z</time>
      </trkpt>
      <trkpt lat="48.45399" lon="7.1472">
        <ele>658</ele>
        <time>2022-08-05T07:48:41Z</time>
      </trkpt>
      <trkpt lat="48.45475" lon="7.14836">
        <ele>637</ele>
        <time>2022-08-05T07:51:05Z</time>
      </trkpt>
      <trkpt lat="48.45548" lon="7.14866">
        <ele>636</ele>
        <time>2022-08-05T07:52:46Z</time>
      </trkpt>
      <trkpt lat="48.45596" lon="7.14902">
        <ele>638</ele>
        <time>2022-08-05T07:53:57Z</time>
      </trkpt>
      <trkpt lat="48.4562" lon="7.14981">
        <ele>637</ele>
        <time>2022-08-05T07:55:14Z</time>
      </trkpt>
      <trkpt lat="48.45628" lon="7.15109">
        <ele>635</ele>
        <time>2022-08-05T07:57:08Z</time>
      </trkpt>
      <trkpt lat="48.45655" lon="7.15173">
        <ele>635</ele>
        <time>2022-08-05T07:58:15Z</time>
      </trkpt>
      <trkpt lat="48.45683" lon="7.15288">
        <ele>633</ele>
        <time>2022-08-05T08:00:04Z</time>
      </trkpt>
      <trkpt lat="48.45739" lon="7.15385">
        <ele>632</ele>
        <time>2022-08-05T08:01:58Z</time>
      </trkpt>
      <trkpt lat="48.45824" lon="7.15428">
        <ele>636</ele>
        <time>2022-08-05T08:03:57Z</time>
      </trkpt>
      <trkpt lat="48.45868" lon="7.1547">
        <ele>642</ele>
        <time>2022-08-05T08:05:07Z</time>
      </trkpt>
      <trkpt lat="48.45945" lon="7.15482">
        <ele>647</ele>
        <time>2022-08-05T08:06:50Z</time>
      </trkpt>
      <trkpt lat="48.45957" lon="7.15567">
        <ele>647</ele>
        <time>2022-08-05T08:08:07Z</time>
      </trkpt>
      <trkpt lat="48.45957" lon="7.15598">
        <ele>646</ele>
        <time>2022-08-05T08:08:34Z</time>
      </trkpt>
      <trkpt lat="48.46017" lon="7.15725">
        <ele>647</ele>
        <time>2022-08-05T08:10:52Z</time>
      </trkpt>
      <trkpt lat="48.46029" lon="7.15798">
        <ele>650</ele>
        <time>2022-08-05T08:11:59Z</time>
      </trkpt>
      <trkpt lat="48.46041" lon="7.16156">
        <ele>650</ele>
        <time>2022-08-05T08:17:16Z</time>
      </trkpt>
      <trkpt lat="48.46057" lon="7.16247">
        <ele>652</ele>
        <time>2022-08-05T08:18:39Z</time>
      </trkpt>
      <trkpt lat="48.46182" lon="7.1638">
        <ele>659</ele>
        <time>2022-08-05T08:22:04Z</time>
      </trkpt>
      <trkpt lat="48.46255" lon="7.16471">
        <ele>652</ele>
        <time>2022-08-05T08:24:10Z</time>
      </trkpt>
      <trkpt lat="48.46323" lon="7.16508">
        <ele>656</ele>
        <time>2022-08-05T08:25:46Z</time>
      </trkpt>
      <trkpt lat="48.46399" lon="7.16657">
        <ele>654</ele>
        <time>2022-08-05T08:28:33Z</time>
      </trkpt>
      <trkpt lat="48.46471" lon="7.16845">
        <ele>647</ele>
        <time>2022-08-05T08:31:45Z</time>
      </trkpt>
      <trkpt lat="48.46531" lon="7.17112">
        <ele>654</ele>
        <time>2022-08-05T08:35:54Z</time>
      </trkpt>
      <trkpt lat="48.46588" lon="7.17197">
        <ele>660</ele>
        <time>2022-08-05T08:37:41Z</time>
      </trkpt>
      <trkpt lat="48.4664" lon="7.17325">
        <ele>657</ele>
        <time>2022-08-05T08:39:54Z</time>
      </trkpt>
      <trkpt lat="48.46725" lon="7.17416">
        <ele>654</ele>
        <time>2022-08-05T08:42:13Z</time>
      </trkpt>
      <trkpt lat="48.46793" lon="7.17483">
        <ele>655</ele>
        <time>2022-08-05T08:44:02Z</time>
      </trkpt>
      <trkpt lat="48.46845" lon="7.17543">
        <ele>661</ele>
        <time>2022-08-05T08:45:29Z</time>
      </trkpt>
      <trkpt lat="48.46877" lon="7.17659">
        <ele>664</ele>
        <time>2022-08-05T08:47:20Z</time>
      </trkpt>
      <trkpt lat="48.46886" lon="7.17762">
        <ele>665</ele>
        <time>2022-08-05T08:48:52Z</time>
      </trkpt>
      <trkpt lat="48.4691" lon="7.17889">
        <ele>664</ele>
        <time>2022-08-05T08:50:49Z</time>
      </trkpt>
      <trkpt lat="48.46914" lon="7.17956">
        <ele>660</ele>
        <time>2022-08-05T08:51:48Z</time>
      </trkpt>
      <trkpt lat="48.4691" lon="7.18011">
        <ele>656</ele>
        <time>2022-08-05T08:52:37Z</time>
      </trkpt>
      <trkpt lat="48.4691" lon="7.18108">
        <ele>647</ele>
        <time>2022-08-05T08:54:03Z</time>
      </trkpt>
      <trkpt lat="48.46906" lon="7.18187">
        <ele>641</ele>
        <time>2022-08-05T08:55:13Z</time>
      </trkpt>
      <trkpt lat="48.46898" lon="7.18211">
        <ele>639</ele>
        <time>2022-08-05T08:55:37Z</time>
      </trkpt>
      <trkpt lat="48.46934" lon="7.18338">
        <ele>637</ele>
        <time>2022-08-05T08:57:39Z</time>
      </trkpt>
      <trkpt lat="48.46974" lon="7.18411">
        <ele>636</ele>
        <time>2022-08-05T08:59:03Z</time>
      </trkpt>
      <trkpt lat="48.46994" lon="7.18442">
        <ele>637</ele>
        <time>2022-08-05T08:59:41Z</time>
      </trkpt>
      <trkpt lat="48.46962" lon="7.18496">
        <ele>637</ele>
        <time>2022-08-05T09:00:45Z</time>
      </trkpt>
      <trkpt lat="48.4699" lon="7.18563">
        <ele>643</ele>
        <time>2022-08-05T09:01:55Z</time>
      </trkpt>
      <trkpt lat="48.47022" lon="7.1863">
        <ele>645</ele>
        <time>2022-08-05T09:03:09Z</time>
      </trkpt>
      <trkpt lat="48.4703" lon="7.18666">
        <ele>646</ele>
        <time>2022-08-05T09:03:42Z</time>
      </trkpt>
      <trkpt lat="48.47087" lon="7.18739">
        <ele>645</ele>
        <time>2022-08-05T09:05:22Z</time>
      </trkpt>
      <trkpt lat="48.47127" lon="7.18842">
        <ele>634</ele>
        <time>2022-08-05T09:07:08Z</time>
      </trkpt>
      <trkpt lat="48.47127" lon="7.18915">
        <ele>631</ele>
        <time>2022-08-05T09:08:12Z</time>
      </trkpt>
      <trkpt lat="48.47182" lon="7.18827">
        <ele>618</ele>
        <time>2022-08-05T09:09:59Z</time>
      </trkpt>
      <trkpt lat="48.4719" lon="7.18936">
        <ele>613</ele>
        <time>2022-08-05T09:11:36Z</time>
      </trkpt>
      <trkpt lat="48.47182" lon="7.19039">
        <ele>612</ele>
        <time>2022-08-05T09:13:08Z</time>
      </trkpt>
      <trkpt lat="48.47178" lon="7.19161">
        <ele>609</ele>
        <time>2022-08-05T09:14:56Z</time>
      </trkpt>
      <trkpt lat="48.47178" lon="7.19306">
        <ele>599</ele>
        <time>2022-08-05T09:17:04Z</time>
      </trkpt>
      <trkpt lat="48.47182" lon="7.19397">
        <ele>590</ele>
        <time>2022-08-05T09:18:25Z</time>
      </trkpt>
      <trkpt lat="48.47222" lon="7.19494">
        <ele>580</ele>
        <time>2022-08-05T09:20:06Z</time>
      </trkpt>
      <trkpt lat="48.47294" lon="7.19585">
        <ele>573</ele>
        <time>2022-08-05T09:22:11Z</time>
      </trkpt>
      <trkpt lat="48.47391" lon="7.19834">
        <ele>546</ele>
        <time>2022-08-05T09:26:27Z</time>
      </trkpt>
      <trkpt lat="48.47467" lon="7.19998">
        <ele>533</ele>
        <time>2022-08-05T09:29:24Z</time>
      </trkpt>
      <trkpt lat="48.4754" lon="7.20097">
        <ele>524</ele>
        <time>2022-08-05T09:31:35Z</time>
      </trkpt>
      <trkpt lat="48.47593" lon="7.20072">
        <ele>531</ele>
        <time>2022-08-05T09:32:49Z</time>
      </trkpt>
      <trkpt lat="48.47645" lon="7.20054">
        <ele>528</ele>
        <time>2022-08-05T09:34:00Z</time>
      </trkpt>
      <trkpt lat="48.47762" lon="7.20078">
        <ele>512</ele>
        <time>2022-08-05T09:36:38Z</time>
      </trkpt>
      <trkpt lat="48.47794" lon="7.20024">
        <ele>511</ele>
        <time>2022-08-05T09:37:42Z</time>
      </trkpt>
      <trkpt lat="48.4781" lon="7.19957">
        <ele>506</ele>
        <time>2022-08-05T09:38:45Z</time>
      </trkpt>
      <trkpt lat="48.47822" lon="7.1986">
        <ele>503</ele>
        <time>2022-08-05T09:40:12Z</time>
      </trkpt>
      <trkpt lat="48.4787" lon="7.19927">
        <ele>480</ele>
        <time>2022-08-05T09:41:39Z</time>
      </trkpt>
      <trkpt lat="48.47915" lon="7.20109">
        <ele>463</ele>
        <time>2022-08-05T09:44:31Z</time>
      </trkpt>
      <trkpt lat="48.47854" lon="7.20321">
        <ele>446</ele>
        <time>2022-08-05T09:47:56Z</time>
      </trkpt>
      <trkpt lat="48.47911" lon="7.20315">
        <ele>439</ele>
        <time>2022-08-05T09:49:12Z</time>
      </trkpt>
      <trkpt lat="48.47878" lon="7.20376">
        <ele>426</ele>
        <time>2022-08-05T09:50:22Z</time>
      </trkpt>
      <trkpt lat="48.47846" lon="7.20406">
        <ele>420</ele>
        <time>2022-08-05T09:51:12Z</time>
      </trkpt>
      <trkpt lat="48.4781" lon="7.20406">
        <ele>422</ele>
        <time>2022-08-05T09:52:00Z</time>
      </trkpt>
      <trkpt lat="48.47782" lon="7.204">
        <ele>425</ele>
        <time>2022-08-05T09:52:38Z</time>
      </trkpt>
      <trkpt lat="48.47766" lon="7.20479">
        <ele>404</ele>
        <time>2022-08-05T09:53:51Z</time>
      </trkpt>
      <trkpt lat="48.47738" lon="7.20473">
        <ele>408</ele>
        <time>2022-08-05T09:54:28Z</time>
      </trkpt>
      <trkpt lat="48.47721" lon="7.20522">
        <ele>400</ele>
        <time>2022-08-05T09:55:17Z</time>
      </trkpt>
      <trkpt lat="48.4773" lon="7.20607">
        <ele>387</ele>
        <time>2022-08-05T09:56:33Z</time>
      </trkpt>
      <trkpt lat="48.47742" lon="7.20673">
        <ele>377</ele>
        <time>2022-08-05T09:57:34Z</time>
      </trkpt>
      <trkpt lat="48.47766" lon="7.20746">
        <ele>364</ele>
        <time>2022-08-05T09:58:46Z</time>
      </trkpt>
      <trkpt lat="48.4781" lon="7.20855">
        <ele>346</ele>
        <time>2022-08-05T10:00:39Z</time>
      </trkpt>
      <trkpt lat="48.4781" lon="7.20928">
        <ele>341</ele>
        <time>2022-08-05T10:01:44Z</time>
      </trkpt>
      <trkpt lat="48.47794" lon="7.20995">
        <ele>337</ele>
        <time>2022-08-05T10:02:47Z</time>
      </trkpt>
      <trkpt lat="48.47758" lon="7.21068">
        <ele>334</ele>
        <time>2022-08-05T10:04:07Z</time>
      </trkpt>
      <trkpt lat="48.47746" lon="7.21104">
        <ele>332</ele>
        <time>2022-08-05T10:04:43Z</time>
      </trkpt>
      <trkpt lat="48.47701" lon="7.21207">
        <ele>326</ele>
        <time>2022-08-05T10:06:32Z</time>
      </trkpt>
      <trkpt lat="48.47661" lon="7.21268">
        <ele>324</ele>
        <time>2022-08-05T10:07:48Z</time>
      </trkpt>
      <trkpt lat="48.47645" lon="7.21298">
        <ele>323</ele>
        <time>2022-08-05T10:08:22Z</time>
      </trkpt>
      <trkpt lat="48.47629" lon="7.21375">
        <ele>320</ele>
        <time>2022-08-05T10:09:33Z</time>
      </trkpt>
      <trkpt lat="48.47636" lon="7.21433">
        <ele>318</ele>
        <time>2022-08-05T10:10:25Z</time>
      </trkpt>
      <trkpt lat="48.47679" lon="7.21472">
        <ele>315</ele>
        <time>2022-08-05T10:11:32Z</time>
      </trkpt>
      <trkpt lat="48.4771" lon="7.2148">
        <ele>314</ele>
        <time>2022-08-05T10:12:14Z</time>
      </trkpt>
      <trkpt lat="48.47775" lon="7.21451">
        <ele>314</ele>
        <time>2022-08-05T10:13:45Z</time>
      </trkpt>
      <trkpt lat="48.47825" lon="7.21483">
        <ele>313</ele>
        <time>2022-08-05T10:14:57Z</time>
      </trkpt>
      <trkpt lat="48.47859" lon="7.21512">
        <ele>312</ele>
        <time>2022-08-05T10:15:49Z</time>
      </trkpt>
      <trkpt lat="48.47921" lon="7.21559">
        <ele>313</ele>
        <time>2022-08-05T10:17:22Z</time>
      </trkpt>
      <trkpt lat="48.47945" lon="7.21581">
        <ele>312</ele>
        <time>2022-08-05T10:17:59Z</time>
      </trkpt>
      <trkpt lat="48.47988" lon="7.21602">
        <ele>311</ele>
        <time>2022-08-05T10:19:00Z</time>
      </trkpt>
      <trkpt lat="48.48026" lon="7.21628">
        <ele>311</ele>
        <time>2022-08-05T10:19:55Z</time>
      </trkpt>
    </trkseg>
  </trk>
</gpx>